Time,TemperatureF,DewpointF,PressureIn,WindDirection,WindDirectionDegrees,WindSpeedMPH,WindSpeedGustMPH,Humidity,HourlyPrecipIn,Conditions,Clouds,dailyrainin,SoftwareType,DateUTC
2013-06-30 00:00:00,51.9,49.9,29.87,WNW,297,0.0,0.0,93,0.00,,CLR,0.00,VWS V12.07,2013-06-30 05:00:00,
2013-06-30 00:03:00,51.9,49.7,29.87,WNW,297,0.0,0.0,92,0.00,,CLR,0.00,VWS V12.07,2013-06-30 05:03:00,
2013-06-30 00:04:00,51.9,49.9,29.87,WNW,297,0.0,0.0,93,0.00,,CLR,0.00,VWS V12.07,2013-06-30 05:04:00,
2013-06-30 00:05:00,51.9,49.9,29.87,WNW,297,0.0,0.0,93,0.00,,CLR,0.00,VWS V12.07,2013-06-30 05:05:00,
2013-06-30 00:08:00,51.9,49.9,29.87,WNW,297,0.0,0.0,93,0.00,,CLR,0.00,VWS V12.07,2013-06-30 05:08:00,
2013-06-30 00:09:00,51.9,49.9,29.87,WNW,297,0.0,0.0,93,0.00,,CLR,0.00,VWS V12.07,2013-06-30 05:09:00,
2013-06-30 00:10:00,51.9,49.9,29.87,WNW,297,0.0,0.0,93,0.00,,CLR,0.00,VWS V12.07,2013-06-30 05:10:00,
2013-06-30 00:14:00,51.9,50.5,29.87,WNW,297,0.0,0.0,95,0.00,,CLR,0.00,VWS V12.07,2013-06-30 05:14:00,
2013-06-30 00:15:00,51.9,50.2,29.87,WNW,297,0.0,0.0,94,0.00,,CLR,0.00,VWS V12.07,2013-06-30 05:15:00,
2013-06-30 00:19:00,51.7,50.0,29.87,WNW,297,0.0,0.0,94,0.00,,CLR,0.00,VWS V12.07,2013-06-30 05:19:00,
2013-06-30 00:20:00,51.7,50.0,29.87,WNW,297,0.0,0.0,94,0.00,,CLR,0.00,VWS V12.07,2013-06-30 05:20:00,
2013-06-30 00:21:00,51.6,49.7,29.87,WNW,297,0.0,0.0,93,0.00,,CLR,0.00,VWS V12.07,2013-06-30 05:21:00,
2013-06-30 00:24:00,51.6,49.9,29.87,WNW,297,0.0,0.0,94,0.00,,CLR,0.00,VWS V12.07,2013-06-30 05:24:00,
2013-06-30 00:25:00,51.6,49.9,29.87,WNW,297,0.0,0.0,94,0.00,,CLR,0.00,VWS V12.07,2013-06-30 05:25:00,
2013-06-30 00:26:00,51.4,49.7,29.87,WNW,297,0.0,0.0,94,0.00,,CLR,0.00,VWS V12.07,2013-06-30 05:26:00,
2013-06-30 00:29:00,51.4,50.0,29.88,WNW,297,0.0,0.0,95,0.00,,CLR,0.00,VWS V12.07,2013-06-30 05:29:00,
2013-06-30 00:30:00,51.4,50.0,29.88,WNW,297,0.0,0.0,95,0.00,,CLR,0.00,VWS V12.07,2013-06-30 05:30:00,
2013-06-30 00:31:00,51.4,50.0,29.88,WNW,297,0.0,0.0,95,0.00,,CLR,0.00,VWS V12.07,2013-06-30 05:31:00,
2013-06-30 00:35:00,51.3,49.9,29.88,WNW,297,0.0,0.0,95,0.00,,CLR,0.00,VWS V12.07,2013-06-30 05:35:00,
2013-06-30 00:36:00,51.3,49.9,29.88,WNW,297,0.0,0.0,95,0.00,,CLR,0.00,VWS V12.07,2013-06-30 05:36:00,
2013-06-30 00:40:00,51.1,49.7,29.88,WNW,297,0.0,0.0,95,0.00,,CLR,0.00,VWS V12.07,2013-06-30 05:40:00,
2013-06-30 00:41:00,51.1,49.7,29.88,WNW,297,0.0,0.0,95,0.00,,CLR,0.00,VWS V12.07,2013-06-30 05:41:00,
2013-06-30 00:42:00,51.1,49.4,29.88,WNW,297,0.0,0.0,94,0.00,,CLR,0.00,VWS V12.07,2013-06-30 05:42:00,
2013-06-30 00:46:00,50.8,48.8,29.87,WNW,297,0.0,0.0,93,0.00,,CLR,0.00,VWS V12.07,2013-06-30 05:46:00,
2013-06-30 00:47:00,50.8,49.1,29.87,WNW,297,0.0,0.0,94,0.00,,CLR,0.00,VWS V12.07,2013-06-30 05:47:00,
2013-06-30 00:50:00,51.4,50.0,29.88,WNW,297,0.0,0.0,95,0.00,,CLR,0.00,VWS V12.07,2013-06-30 05:50:00,
2013-06-30 00:51:00,50.8,49.4,29.87,WNW,297,0.0,0.0,95,0.00,,CLR,0.00,VWS V12.07,2013-06-30 05:51:00,
2013-06-30 00:52:00,50.8,49.4,29.87,WNW,297,0.0,0.0,95,0.00,,CLR,0.00,VWS V12.07,2013-06-30 05:52:00,
2013-06-30 00:53:00,50.8,49.4,29.87,WNW,297,0.0,0.0,95,0.00,,CLR,0.00,VWS V12.07,2013-06-30 05:53:00,
2013-06-30 00:56:00,50.7,49.3,29.87,WNW,297,0.0,0.0,95,0.00,,CLR,0.00,VWS V12.07,2013-06-30 05:56:00,
2013-06-30 00:57:00,50.7,49.3,29.87,WNW,297,0.0,0.0,95,0.00,,CLR,0.00,VWS V12.07,2013-06-30 05:57:00,
2013-06-30 00:58:00,50.7,49.3,29.87,WNW,297,0.0,0.0,95,0.00,,CLR,0.00,VWS V12.07,2013-06-30 05:58:00,
2013-06-30 01:00:00,51.0,49.3,29.87,WNW,297,0.0,0.0,94,0.00,,CLR,0.00,VWS V12.07,2013-06-30 06:00:00,
2013-06-30 01:02:00,50.5,49.1,29.87,WNW,297,0.0,0.0,95,0.00,,CLR,0.00,VWS V12.07,2013-06-30 06:02:00,
2013-06-30 01:03:00,50.5,49.4,29.87,WNW,297,0.0,0.0,96,0.00,,CLR,0.00,VWS V12.07,2013-06-30 06:03:00,
2013-06-30 01:07:00,50.5,49.4,29.87,WNW,297,0.0,0.0,96,0.00,,CLR,0.00,VWS V12.07,2013-06-30 06:07:00,
2013-06-30 01:08:00,50.4,49.3,29.87,WNW,297,0.0,0.0,96,0.00,,CLR,0.00,VWS V12.07,2013-06-30 06:08:00,
2013-06-30 01:09:00,50.4,49.3,29.87,WNW,297,0.0,0.0,96,0.00,,CLR,0.00,VWS V12.07,2013-06-30 06:09:00,
2013-06-30 01:10:00,50.7,49.6,29.87,WNW,297,0.0,0.0,96,0.00,,CLR,0.00,VWS V12.07,2013-06-30 06:10:00,
2013-06-30 01:12:00,50.4,49.3,29.87,WNW,297,0.0,0.0,96,0.00,,CLR,0.00,VWS V12.07,2013-06-30 06:12:00,
2013-06-30 01:13:00,50.4,49.3,29.88,WNW,297,0.0,0.0,96,0.00,,CLR,0.00,VWS V12.07,2013-06-30 06:13:00,
2013-06-30 01:14:00,50.4,49.3,29.88,WNW,297,0.0,0.0,96,0.00,,CLR,0.00,VWS V12.07,2013-06-30 06:14:00,
2013-06-30 01:15:00,50.2,49.1,29.88,WNW,297,0.0,0.0,96,0.00,,CLR,0.00,VWS V12.07,2013-06-30 06:15:00,
2013-06-30 01:17:00,50.2,49.1,29.88,WNW,297,0.0,0.0,96,0.00,,CLR,0.00,VWS V12.07,2013-06-30 06:17:00,
2013-06-30 01:18:00,50.2,49.1,29.88,WNW,297,0.0,0.0,96,0.00,,CLR,0.00,VWS V12.07,2013-06-30 06:18:00,
2013-06-30 01:19:00,50.2,49.1,29.88,WNW,297,0.0,0.0,96,0.00,,CLR,0.00,VWS V12.07,2013-06-30 06:19:00,
2013-06-30 01:20:00,50.5,49.1,29.87,WNW,297,0.0,0.0,95,0.00,,CLR,0.00,VWS V12.07,2013-06-30 06:20:00,
2013-06-30 01:21:00,50.1,49.0,29.88,WNW,297,0.0,0.0,96,0.00,,CLR,0.00,VWS V12.07,2013-06-30 06:21:00,
2013-06-30 01:23:00,50.1,49.0,29.88,WNW,297,0.0,0.0,96,0.00,,CLR,0.00,VWS V12.07,2013-06-30 06:23:00,
2013-06-30 01:24:00,50.1,49.0,29.88,WNW,297,0.0,0.0,96,0.00,,CLR,0.00,VWS V12.07,2013-06-30 06:24:00,
2013-06-30 01:26:00,49.9,48.8,29.88,WNW,297,0.0,0.0,96,0.00,,CLR,0.00,VWS V12.07,2013-06-30 06:26:00,
2013-06-30 01:28:00,49.9,48.8,29.88,WNW,297,0.0,0.0,96,0.00,,CLR,0.00,VWS V12.07,2013-06-30 06:28:00,
2013-06-30 01:29:00,49.8,48.7,29.88,WNW,297,0.0,0.0,96,0.00,,CLR,0.00,VWS V12.07,2013-06-30 06:29:00,
2013-06-30 01:30:00,49.8,48.7,29.88,WNW,297,0.0,0.0,96,0.00,,CLR,0.00,VWS V12.07,2013-06-30 06:30:00,
2013-06-30 01:32:00,49.6,48.5,29.88,WNW,297,0.0,0.0,96,0.00,,CLR,0.00,VWS V12.07,2013-06-30 06:32:00,
2013-06-30 01:33:00,49.6,48.5,29.88,WNW,297,0.0,0.0,96,0.00,,CLR,0.00,VWS V12.07,2013-06-30 06:33:00,
2013-06-30 01:34:00,49.6,48.5,29.88,WNW,297,0.0,0.0,96,0.00,,CLR,0.00,VWS V12.07,2013-06-30 06:34:00,
2013-06-30 01:35:00,49.6,48.5,29.88,WNW,297,0.0,0.0,96,0.00,,CLR,0.00,VWS V12.07,2013-06-30 06:35:00,
2013-06-30 01:37:00,49.5,48.4,29.88,WNW,297,0.0,0.0,96,0.00,,CLR,0.00,VWS V12.07,2013-06-30 06:37:00,
2013-06-30 01:39:00,49.5,48.7,29.88,WNW,297,0.0,0.0,97,0.00,,CLR,0.00,VWS V12.07,2013-06-30 06:39:00,
2013-06-30 01:40:00,49.4,48.6,29.88,WNW,297,0.0,0.0,97,0.00,,CLR,0.00,VWS V12.07,2013-06-30 06:40:00,
2013-06-30 01:42:00,49.4,48.6,29.88,WNW,297,0.0,0.0,97,0.00,,CLR,0.00,VWS V12.07,2013-06-30 06:42:00,
2013-06-30 01:44:00,49.4,48.6,29.88,WNW,297,0.0,0.0,97,0.00,,CLR,0.00,VWS V12.07,2013-06-30 06:44:00,
2013-06-30 01:45:00,49.2,48.4,29.88,WNW,297,0.0,0.0,97,0.00,,CLR,0.00,VWS V12.07,2013-06-30 06:45:00,
2013-06-30 01:46:00,49.2,48.4,29.88,WNW,297,0.0,0.0,97,0.00,,CLR,0.00,VWS V12.07,2013-06-30 06:46:00,
2013-06-30 01:48:00,49.2,48.4,29.88,WNW,297,0.0,0.0,97,0.00,,CLR,0.00,VWS V12.07,2013-06-30 06:48:00,
2013-06-30 01:49:00,49.1,48.3,29.88,WNW,297,0.0,0.0,97,0.00,,CLR,0.00,VWS V12.07,2013-06-30 06:49:00,
2013-06-30 01:50:00,49.1,48.3,29.88,WNW,297,0.0,0.0,97,0.00,,CLR,0.00,VWS V12.07,2013-06-30 06:50:00,
2013-06-30 01:51:00,49.1,48.3,29.88,WNW,297,0.0,0.0,97,0.00,,CLR,0.00,VWS V12.07,2013-06-30 06:51:00,
2013-06-30 01:53:00,49.1,48.3,29.88,WNW,297,0.0,0.0,97,0.00,,CLR,0.00,VWS V12.07,2013-06-30 06:53:00,
2013-06-30 01:54:00,48.9,48.4,29.88,WNW,297,0.0,0.0,98,0.00,,CLR,0.00,VWS V12.07,2013-06-30 06:54:00,
2013-06-30 01:55:00,48.9,48.4,29.88,WNW,297,0.0,0.0,98,0.00,,CLR,0.00,VWS V12.07,2013-06-30 06:55:00,
2013-06-30 01:56:00,48.9,48.4,29.88,WNW,297,0.0,0.0,98,0.00,,CLR,0.00,VWS V12.07,2013-06-30 06:56:00,
2013-06-30 01:59:00,48.9,48.4,29.88,WNW,297,0.0,0.0,98,0.00,,CLR,0.00,VWS V12.07,2013-06-30 06:59:00,
2013-06-30 02:00:00,48.8,48.3,29.88,WNW,297,0.0,0.0,98,0.00,,CLR,0.00,VWS V12.07,2013-06-30 07:00:00,
2013-06-30 02:01:00,48.8,48.3,29.88,WNW,297,0.0,0.0,98,0.00,,CLR,0.00,VWS V12.07,2013-06-30 07:01:00,
2013-06-30 02:02:00,48.8,48.3,29.88,WNW,297,0.0,0.0,98,0.00,,CLR,0.00,VWS V12.07,2013-06-30 07:02:00,
2013-06-30 02:04:00,48.8,48.3,29.88,WNW,297,0.0,0.0,98,0.00,,CLR,0.00,VWS V12.07,2013-06-30 07:04:00,
2013-06-30 02:06:00,48.6,48.1,29.88,WNW,297,0.0,0.0,98,0.00,,CLR,0.00,VWS V12.07,2013-06-30 07:06:00,
2013-06-30 02:07:00,48.6,48.3,29.88,WNW,297,0.0,0.0,99,0.00,,CLR,0.00,VWS V12.07,2013-06-30 07:07:00,
2013-06-30 02:09:00,48.6,48.3,29.88,WNW,297,0.0,0.0,99,0.00,,CLR,0.00,VWS V12.07,2013-06-30 07:09:00,
2013-06-30 02:10:00,48.5,48.2,29.88,WNW,297,0.0,0.0,99,0.00,,CLR,0.00,VWS V12.07,2013-06-30 07:10:00,
2013-06-30 02:11:00,48.5,48.2,29.88,WNW,297,0.0,0.0,99,0.00,,CLR,0.00,VWS V12.07,2013-06-30 07:11:00,
2013-06-30 02:13:00,48.5,48.2,29.88,WNW,297,0.0,0.0,99,0.00,,CLR,0.00,VWS V12.07,2013-06-30 07:13:00,
2013-06-30 02:14:00,48.5,48.2,29.88,WNW,297,0.0,0.0,99,0.00,,CLR,0.00,VWS V12.07,2013-06-30 07:14:00,
2013-06-30 02:15:00,48.5,48.2,29.88,WNW,297,0.0,0.0,99,0.00,,CLR,0.00,VWS V12.07,2013-06-30 07:15:00,
2013-06-30 02:16:00,48.5,48.2,29.88,WNW,297,0.0,0.0,99,0.00,,CLR,0.00,VWS V12.07,2013-06-30 07:16:00,
2013-06-30 02:17:00,48.5,48.2,29.88,WNW,297,0.0,0.0,99,0.00,,CLR,0.00,VWS V12.07,2013-06-30 07:17:00,
2013-06-30 02:19:00,48.3,48.3,29.88,WNW,297,0.0,0.0,100,0.00,,CLR,0.00,VWS V12.07,2013-06-30 07:19:00,
2013-06-30 02:20:00,48.3,48.3,29.88,WNW,297,0.0,0.0,100,0.00,,CLR,0.00,VWS V12.07,2013-06-30 07:20:00,
2013-06-30 02:22:00,48.3,48.3,29.88,WNW,297,0.0,0.0,100,0.00,,CLR,0.00,VWS V12.07,2013-06-30 07:22:00,
2013-06-30 02:25:00,48.3,48.3,29.88,WNW,297,0.0,0.0,100,0.00,,CLR,0.00,VWS V12.07,2013-06-30 07:25:00,
2013-06-30 02:26:00,48.2,48.2,29.88,WNW,297,0.0,0.0,100,0.00,,CLR,0.00,VWS V12.07,2013-06-30 07:26:00,
2013-06-30 02:27:00,48.2,48.2,29.88,WNW,297,0.0,0.0,100,0.00,,CLR,0.00,VWS V12.07,2013-06-30 07:27:00,
2013-06-30 02:30:00,48.2,48.2,29.88,WNW,297,0.0,0.0,100,0.00,,CLR,0.00,VWS V12.07,2013-06-30 07:30:00,
2013-06-30 02:31:00,48.2,48.2,29.88,WNW,297,0.0,0.0,100,0.00,,CLR,0.00,VWS V12.07,2013-06-30 07:31:00,
2013-06-30 02:32:00,48.0,48.0,29.88,WNW,297,0.0,0.0,100,0.00,,CLR,0.00,VWS V12.07,2013-06-30 07:32:00,
2013-06-30 02:33:00,48.0,48.0,29.88,WNW,297,0.0,0.0,100,0.00,,CLR,0.00,VWS V12.07,2013-06-30 07:33:00,
2013-06-30 02:35:00,48.0,48.0,29.88,WNW,297,0.0,0.0,100,0.00,,CLR,0.00,VWS V12.07,2013-06-30 07:35:00,
2013-06-30 02:36:00,48.0,48.0,29.88,WNW,297,0.0,0.0,100,0.00,,CLR,0.00,VWS V12.07,2013-06-30 07:36:00,
2013-06-30 02:38:00,48.0,48.0,29.88,WNW,297,0.0,0.0,100,0.00,,CLR,0.00,VWS V12.07,2013-06-30 07:38:00,
2013-06-30 02:40:00,48.0,48.0,29.88,WNW,297,0.0,0.0,100,0.00,,CLR,0.00,VWS V12.07,2013-06-30 07:40:00,
2013-06-30 02:41:00,47.9,47.9,29.88,WNW,297,0.0,0.0,100,0.00,,CLR,0.00,VWS V12.07,2013-06-30 07:41:00,
2013-06-30 02:43:00,47.9,47.9,29.88,WNW,297,0.0,0.0,100,0.00,,CLR,0.00,VWS V12.07,2013-06-30 07:43:00,
2013-06-30 02:45:00,47.9,47.9,29.88,WNW,297,0.0,0.0,100,0.00,,CLR,0.00,VWS V12.07,2013-06-30 07:45:00,
2013-06-30 02:46:00,47.9,47.9,29.88,WNW,297,0.0,0.0,100,0.00,,CLR,0.00,VWS V12.07,2013-06-30 07:46:00,
2013-06-30 02:48:00,47.9,47.9,29.88,WNW,297,0.0,0.0,100,0.00,,CLR,0.00,VWS V12.07,2013-06-30 07:48:00,
2013-06-30 02:49:00,47.9,47.9,29.88,WNW,297,0.0,0.0,100,0.00,,CLR,0.00,VWS V12.07,2013-06-30 07:49:00,
2013-06-30 02:50:00,48.0,48.0,29.88,WNW,297,0.0,0.0,100,0.00,,CLR,0.00,VWS V12.07,2013-06-30 07:50:00,
2013-06-30 02:51:00,47.9,47.9,29.88,WNW,297,0.0,0.0,100,0.00,,CLR,0.00,VWS V12.07,2013-06-30 07:51:00,
2013-06-30 02:52:00,47.7,47.7,29.88,WNW,297,0.0,0.0,100,0.00,,CLR,0.00,VWS V12.07,2013-06-30 07:52:00,
2013-06-30 02:53:00,47.7,47.7,29.88,WNW,297,0.0,0.0,100,0.00,,CLR,0.00,VWS V12.07,2013-06-30 07:53:00,
2013-06-30 02:54:00,47.7,47.7,29.88,WNW,297,0.0,0.0,100,0.00,,CLR,0.00,VWS V12.07,2013-06-30 07:54:00,
2013-06-30 02:56:00,47.7,47.7,29.88,WNW,297,0.0,0.0,100,0.00,,CLR,0.00,VWS V12.07,2013-06-30 07:56:00,
2013-06-30 02:57:00,47.7,47.7,29.88,WNW,297,0.0,0.0,100,0.00,,CLR,0.00,VWS V12.07,2013-06-30 07:57:00,
2013-06-30 02:58:00,47.6,47.6,29.89,WNW,297,0.0,0.0,100,0.00,,CLR,0.00,VWS V12.07,2013-06-30 07:58:00,
2013-06-30 02:59:00,47.6,47.6,29.89,WNW,297,0.0,0.0,100,0.00,,CLR,0.00,VWS V12.07,2013-06-30 07:59:00,
2013-06-30 03:00:00,47.9,47.9,29.88,WNW,297,0.0,0.0,100,0.00,,CLR,0.00,VWS V12.07,2013-06-30 08:00:00,
2013-06-30 03:01:00,47.6,47.6,29.89,WNW,297,0.0,0.0,100,0.00,,CLR,0.00,VWS V12.07,2013-06-30 08:01:00,
2013-06-30 03:02:00,47.6,47.6,29.89,WNW,297,0.0,0.0,100,0.00,,CLR,0.00,VWS V12.07,2013-06-30 08:02:00,
2013-06-30 03:04:00,47.7,47.7,29.89,WNW,297,0.0,0.0,100,0.00,,CLR,0.00,VWS V12.07,2013-06-30 08:04:00,
2013-06-30 03:05:00,47.7,47.7,29.89,WNW,297,0.0,0.0,100,0.00,,CLR,0.00,VWS V12.07,2013-06-30 08:05:00,
2013-06-30 03:06:00,47.7,47.7,29.89,WNW,297,0.0,0.0,100,0.00,,CLR,0.00,VWS V12.07,2013-06-30 08:06:00,
2013-06-30 03:07:00,47.7,47.7,29.89,WNW,297,0.0,0.0,100,0.00,,CLR,0.00,VWS V12.07,2013-06-30 08:07:00,
2013-06-30 03:09:00,47.7,47.7,29.89,WNW,297,0.0,0.0,100,0.00,,CLR,0.00,VWS V12.07,2013-06-30 08:09:00,
2013-06-30 03:10:00,47.7,47.7,29.89,WNW,297,0.0,0.0,100,0.00,,CLR,0.00,VWS V12.07,2013-06-30 08:10:00,
2013-06-30 03:12:00,47.7,47.7,29.89,WNW,297,0.0,0.0,100,0.00,,CLR,0.00,VWS V12.07,2013-06-30 08:12:00,
2013-06-30 03:13:00,47.7,47.7,29.89,WNW,297,0.0,0.0,100,0.00,,CLR,0.00,VWS V12.07,2013-06-30 08:13:00,
2013-06-30 03:14:00,47.7,47.7,29.89,WNW,297,0.0,0.0,100,0.00,,CLR,0.00,VWS V12.07,2013-06-30 08:14:00,
2013-06-30 03:15:00,47.7,47.7,29.89,WNW,297,0.0,0.0,100,0.00,,CLR,0.00,VWS V12.07,2013-06-30 08:15:00,
2013-06-30 03:17:00,47.7,47.7,29.89,WNW,297,0.0,0.0,100,0.00,,CLR,0.00,VWS V12.07,2013-06-30 08:17:00,
2013-06-30 03:18:00,47.7,47.7,29.89,WNW,297,0.0,0.0,100,0.00,,CLR,0.00,VWS V12.07,2013-06-30 08:18:00,
2013-06-30 03:19:00,47.7,47.7,29.89,WNW,297,0.0,0.0,100,0.00,,CLR,0.00,VWS V12.07,2013-06-30 08:19:00,
2013-06-30 03:20:00,47.7,47.7,29.89,WNW,297,0.0,0.0,100,0.00,,CLR,0.00,VWS V12.07,2013-06-30 08:20:00,
2013-06-30 03:23:00,47.6,47.6,29.89,WNW,297,0.0,0.0,100,0.00,,CLR,0.00,VWS V12.07,2013-06-30 08:23:00,
2013-06-30 03:24:00,47.6,47.6,29.89,WNW,297,0.0,0.0,100,0.00,,CLR,0.00,VWS V12.07,2013-06-30 08:24:00,
2013-06-30 03:25:00,47.6,47.6,29.89,WNW,297,0.0,0.0,100,0.00,,CLR,0.00,VWS V12.07,2013-06-30 08:25:00,
2013-06-30 03:26:00,47.6,47.6,29.89,WNW,297,0.0,0.0,100,0.00,,CLR,0.00,VWS V12.07,2013-06-30 08:26:00,
2013-06-30 03:28:00,47.4,47.4,29.89,WNW,297,0.0,0.0,100,0.00,,CLR,0.00,VWS V12.07,2013-06-30 08:28:00,
2013-06-30 03:29:00,47.4,47.4,29.89,WNW,297,0.0,0.0,100,0.00,,CLR,0.00,VWS V12.07,2013-06-30 08:29:00,
2013-06-30 03:30:00,47.7,47.7,29.89,WNW,297,0.0,0.0,100,0.00,,CLR,0.00,VWS V12.07,2013-06-30 08:30:00,
2013-06-30 03:31:00,47.4,47.4,29.89,WNW,297,0.0,0.0,100,0.00,,CLR,0.00,VWS V12.07,2013-06-30 08:31:00,
2013-06-30 03:33:00,47.4,47.4,29.89,WNW,297,0.0,0.0,100,0.00,,CLR,0.00,VWS V12.07,2013-06-30 08:33:00,
2013-06-30 03:34:00,47.4,47.4,29.89,WNW,297,0.0,0.0,100,0.00,,CLR,0.00,VWS V12.07,2013-06-30 08:34:00,
2013-06-30 03:36:00,47.3,47.3,29.89,WNW,297,0.0,0.0,100,0.00,,CLR,0.00,VWS V12.07,2013-06-30 08:36:00,
2013-06-30 03:37:00,47.3,47.3,29.89,WNW,297,0.0,0.0,100,0.00,,CLR,0.00,VWS V12.07,2013-06-30 08:37:00,
2013-06-30 03:39:00,47.3,47.3,29.89,WNW,297,0.0,0.0,100,0.00,,CLR,0.00,VWS V12.07,2013-06-30 08:39:00,
2013-06-30 03:40:00,47.3,47.3,29.89,WNW,297,0.0,0.0,100,0.00,,CLR,0.00,VWS V12.07,2013-06-30 08:40:00,
2013-06-30 03:42:00,47.3,47.3,29.89,WNW,297,0.0,0.0,100,0.00,,CLR,0.00,VWS V12.07,2013-06-30 08:42:00,
2013-06-30 03:44:00,47.3,47.3,29.89,WNW,297,0.0,0.0,100,0.00,,CLR,0.00,VWS V12.07,2013-06-30 08:44:00,
2013-06-30 03:45:00,47.3,47.3,29.89,WNW,297,0.0,0.0,100,0.00,,CLR,0.00,VWS V12.07,2013-06-30 08:45:00,
2013-06-30 03:47:00,47.3,47.3,29.89,WNW,297,0.0,0.0,100,0.00,,CLR,0.00,VWS V12.07,2013-06-30 08:47:00,
2013-06-30 03:48:00,47.3,47.3,29.89,WNW,297,0.0,0.0,100,0.00,,CLR,0.00,VWS V12.07,2013-06-30 08:48:00,
2013-06-30 03:50:00,47.3,47.3,29.89,WNW,297,0.0,0.0,100,0.00,,CLR,0.00,VWS V12.07,2013-06-30 08:50:00,
2013-06-30 03:51:00,47.3,47.3,29.89,WNW,297,0.0,0.0,100,0.00,,CLR,0.00,VWS V12.07,2013-06-30 08:51:00,
2013-06-30 03:53:00,47.3,47.3,29.89,WNW,297,0.0,0.0,100,0.00,,CLR,0.00,VWS V12.07,2013-06-30 08:53:00,
2013-06-30 03:55:00,47.3,47.3,29.89,WNW,297,0.0,0.0,100,0.00,,CLR,0.00,VWS V12.07,2013-06-30 08:55:00,
2013-06-30 03:56:00,47.3,47.3,29.89,WNW,297,0.0,0.0,100,0.00,,CLR,0.00,VWS V12.07,2013-06-30 08:56:00,
2013-06-30 03:58:00,47.3,47.3,29.90,WNW,297,0.0,0.0,100,0.00,,CLR,0.00,VWS V12.07,2013-06-30 08:58:00,
2013-06-30 04:00:00,47.3,47.3,29.89,WNW,297,0.0,0.0,100,0.00,,CLR,0.00,VWS V12.07,2013-06-30 09:00:00,
2013-06-30 04:01:00,47.1,47.1,29.90,WNW,297,0.0,0.0,100,0.00,,CLR,0.00,VWS V12.07,2013-06-30 09:01:00,
2013-06-30 04:02:00,47.1,47.1,29.90,WNW,297,0.0,0.0,100,0.00,,CLR,0.00,VWS V12.07,2013-06-30 09:02:00,
2013-06-30 04:03:00,47.0,47.0,29.90,WNW,297,0.0,0.0,100,0.00,,CLR,0.00,VWS V12.07,2013-06-30 09:03:00,
2013-06-30 04:04:00,47.0,47.0,29.90,WNW,297,0.0,0.0,100,0.00,,CLR,0.00,VWS V12.07,2013-06-30 09:04:00,
2013-06-30 04:06:00,46.8,46.8,29.90,WNW,297,0.0,0.0,100,0.00,,CLR,0.00,VWS V12.07,2013-06-30 09:06:00,
2013-06-30 04:07:00,46.8,46.8,29.90,WNW,297,0.0,0.0,100,0.00,,CLR,0.00,VWS V12.07,2013-06-30 09:07:00,
2013-06-30 04:08:00,46.8,46.8,29.90,WNW,297,0.0,0.0,100,0.00,,CLR,0.00,VWS V12.07,2013-06-30 09:08:00,
2013-06-30 04:10:00,46.8,46.8,29.90,WNW,297,0.0,0.0,100,0.00,,CLR,0.00,VWS V12.07,2013-06-30 09:10:00,
2013-06-30 04:11:00,46.7,46.7,29.90,WNW,297,0.0,0.0,100,0.00,,CLR,0.00,VWS V12.07,2013-06-30 09:11:00,
2013-06-30 04:13:00,46.7,46.7,29.91,WNW,297,0.0,0.0,100,0.00,,CLR,0.00,VWS V12.07,2013-06-30 09:13:00,
2013-06-30 04:14:00,46.7,46.7,29.91,WNW,297,0.0,0.0,100,0.00,,CLR,0.00,VWS V12.07,2013-06-30 09:14:00,
2013-06-30 04:16:00,46.8,46.8,29.91,WNW,297,0.0,0.0,100,0.00,,CLR,0.00,VWS V12.07,2013-06-30 09:16:00,
2013-06-30 04:18:00,46.8,46.8,29.91,WNW,297,0.0,0.0,100,0.00,,CLR,0.00,VWS V12.07,2013-06-30 09:18:00,
2013-06-30 04:19:00,46.7,46.7,29.91,WNW,297,0.0,0.0,100,0.00,,CLR,0.00,VWS V12.07,2013-06-30 09:19:00,
2013-06-30 04:20:00,47.0,47.0,29.90,WNW,297,0.0,0.0,100,0.00,,CLR,0.00,VWS V12.07,2013-06-30 09:20:00,
2013-06-30 04:21:00,46.7,46.7,29.91,WNW,297,0.0,0.0,100,0.00,,CLR,0.00,VWS V12.07,2013-06-30 09:21:00,
2013-06-30 04:23:00,46.7,46.7,29.91,WNW,297,0.0,0.0,100,0.00,,CLR,0.00,VWS V12.07,2013-06-30 09:23:00,
2013-06-30 04:24:00,46.7,46.7,29.91,WNW,297,0.0,0.0,100,0.00,,CLR,0.00,VWS V12.07,2013-06-30 09:24:00,
2013-06-30 04:26:00,46.7,46.7,29.91,WNW,297,0.0,0.0,100,0.00,,CLR,0.00,VWS V12.07,2013-06-30 09:26:00,
2013-06-30 04:27:00,46.7,46.7,29.91,WNW,297,0.0,0.0,100,0.00,,CLR,0.00,VWS V12.07,2013-06-30 09:27:00,
2013-06-30 04:28:00,46.7,46.7,29.91,WNW,297,0.0,0.0,100,0.00,,CLR,0.00,VWS V12.07,2013-06-30 09:28:00,
2013-06-30 04:29:00,46.8,46.8,29.91,WNW,297,0.0,0.0,100,0.00,,CLR,0.00,VWS V12.07,2013-06-30 09:29:00,
2013-06-30 04:30:00,46.8,46.8,29.91,WNW,297,0.0,0.0,100,0.00,,CLR,0.00,VWS V12.07,2013-06-30 09:30:00,
2013-06-30 04:32:00,46.8,46.8,29.91,WNW,297,0.0,0.0,100,0.00,,CLR,0.00,VWS V12.07,2013-06-30 09:32:00,
2013-06-30 04:33:00,46.8,46.8,29.91,WNW,297,0.0,0.0,100,0.00,,CLR,0.00,VWS V12.07,2013-06-30 09:33:00,
2013-06-30 04:34:00,46.8,46.8,29.91,WNW,297,0.0,0.0,100,0.00,,CLR,0.00,VWS V12.07,2013-06-30 09:34:00,
2013-06-30 04:36:00,47.0,47.0,29.91,WNW,297,0.0,0.0,100,0.00,,CLR,0.00,VWS V12.07,2013-06-30 09:36:00,
2013-06-30 04:38:00,47.0,47.0,29.91,WNW,297,0.0,0.0,100,0.00,,CLR,0.00,VWS V12.07,2013-06-30 09:38:00,
2013-06-30 04:39:00,47.0,47.0,29.91,WNW,297,0.0,0.0,100,0.00,,CLR,0.00,VWS V12.07,2013-06-30 09:39:00,
2013-06-30 04:40:00,46.7,46.7,29.91,WNW,297,0.0,0.0,100,0.00,,CLR,0.00,VWS V12.07,2013-06-30 09:40:00,
2013-06-30 04:41:00,47.0,47.0,29.91,WNW,297,0.0,0.0,100,0.00,,CLR,0.00,VWS V12.07,2013-06-30 09:41:00,
2013-06-30 04:43:00,47.0,47.0,29.91,WNW,297,0.0,0.0,100,0.00,,CLR,0.00,VWS V12.07,2013-06-30 09:43:00,
2013-06-30 04:44:00,47.1,47.1,29.91,WNW,297,0.0,0.0,100,0.00,,CLR,0.00,VWS V12.07,2013-06-30 09:44:00,
2013-06-30 04:47:00,47.1,47.1,29.91,WNW,297,0.0,0.0,100,0.00,,CLR,0.00,VWS V12.07,2013-06-30 09:47:00,
2013-06-30 04:48:00,47.1,47.1,29.91,WNW,297,0.0,0.0,100,0.00,,CLR,0.00,VWS V12.07,2013-06-30 09:48:00,
2013-06-30 04:50:00,47.0,47.0,29.91,WNW,297,0.0,0.0,100,0.00,,CLR,0.00,VWS V12.07,2013-06-30 09:50:00,
2013-06-30 04:52:00,47.0,47.0,29.91,WNW,297,0.0,0.0,100,0.00,,CLR,0.00,VWS V12.07,2013-06-30 09:52:00,
2013-06-30 04:53:00,47.0,47.0,29.91,WNW,297,0.0,0.0,100,0.00,,CLR,0.00,VWS V12.07,2013-06-30 09:53:00,
2013-06-30 04:55:00,47.0,47.0,29.91,WNW,297,0.0,0.0,100,0.00,,CLR,0.00,VWS V12.07,2013-06-30 09:55:00,
2013-06-30 04:57:00,46.8,46.8,29.91,WNW,297,0.0,0.0,100,0.00,,CLR,0.00,VWS V12.07,2013-06-30 09:57:00,
2013-06-30 04:59:00,46.8,46.8,29.91,WNW,297,0.0,0.0,100,0.00,,CLR,0.00,VWS V12.07,2013-06-30 09:59:00,
2013-06-30 05:00:00,47.0,47.0,29.91,WNW,297,0.0,0.0,100,0.00,,CLR,0.00,VWS V12.07,2013-06-30 10:00:00,
2013-06-30 05:02:00,46.7,46.7,29.91,WNW,297,0.0,0.0,100,0.00,,CLR,0.00,VWS V12.07,2013-06-30 10:02:00,
2013-06-30 05:04:00,46.7,46.7,29.91,WNW,297,0.0,0.0,100,0.00,,CLR,0.00,VWS V12.07,2013-06-30 10:04:00,
2013-06-30 05:07:00,46.7,46.7,29.91,WNW,297,0.0,0.0,100,0.00,,CLR,0.00,VWS V12.07,2013-06-30 10:07:00,
2013-06-30 05:08:00,46.7,46.7,29.91,WNW,297,0.0,0.0,100,0.00,,CLR,0.00,VWS V12.07,2013-06-30 10:08:00,
2013-06-30 05:09:00,46.7,46.7,29.91,WNW,297,0.0,0.0,100,0.00,,CLR,0.00,VWS V12.07,2013-06-30 10:09:00,
2013-06-30 05:10:00,47.0,47.0,29.91,WNW,297,0.0,0.0,100,0.00,,CLR,0.00,VWS V12.07,2013-06-30 10:10:00,
2013-06-30 05:12:00,46.5,46.5,29.91,WNW,297,0.0,0.0,100,0.00,,CLR,0.00,VWS V12.07,2013-06-30 10:12:00,
2013-06-30 05:13:00,46.5,46.5,29.91,WNW,297,0.0,0.0,100,0.00,,CLR,0.00,VWS V12.07,2013-06-30 10:13:00,
2013-06-30 05:14:00,46.5,46.5,29.91,WNW,297,0.0,0.0,100,0.00,,CLR,0.00,VWS V12.07,2013-06-30 10:14:00,
2013-06-30 05:15:00,46.5,46.5,29.91,WNW,297,0.0,0.0,100,0.00,,CLR,0.00,VWS V12.07,2013-06-30 10:15:00,
2013-06-30 05:17:00,46.5,46.5,29.91,WNW,297,0.0,0.0,100,0.00,,CLR,0.00,VWS V12.07,2013-06-30 10:17:00,
2013-06-30 05:18:00,46.4,46.4,29.91,WNW,297,0.0,0.0,100,0.00,,CLR,0.00,VWS V12.07,2013-06-30 10:18:00,
2013-06-30 05:20:00,46.4,46.4,29.91,WNW,297,0.0,0.0,100,0.00,,CLR,0.00,VWS V12.07,2013-06-30 10:20:00,
2013-06-30 05:23:00,46.2,46.2,29.91,WNW,297,0.0,0.0,100,0.00,,CLR,0.00,VWS V12.07,2013-06-30 10:23:00,
2013-06-30 05:25:00,46.2,46.2,29.91,WNW,297,0.0,0.0,100,0.00,,CLR,0.00,VWS V12.07,2013-06-30 10:25:00,
2013-06-30 05:28:00,46.1,46.1,29.92,WNW,297,0.0,0.0,100,0.00,,CLR,0.00,VWS V12.07,2013-06-30 10:28:00,
2013-06-30 05:30:00,46.1,46.1,29.92,WNW,297,0.0,0.0,100,0.00,,CLR,0.00,VWS V12.07,2013-06-30 10:30:00,
2013-06-30 05:31:00,46.1,46.1,29.92,WNW,297,0.0,0.0,100,0.00,,CLR,0.00,VWS V12.07,2013-06-30 10:31:00,
2013-06-30 05:33:00,46.1,46.1,29.92,WNW,297,0.0,0.0,100,0.00,,CLR,0.00,VWS V12.07,2013-06-30 10:33:00,
2013-06-30 05:34:00,46.1,46.1,29.92,WNW,297,0.0,0.0,100,0.00,,CLR,0.00,VWS V12.07,2013-06-30 10:34:00,
2013-06-30 05:36:00,46.0,46.0,29.92,WNW,297,0.0,0.0,100,0.00,,CLR,0.00,VWS V12.07,2013-06-30 10:36:00,
2013-06-30 05:38:00,46.0,46.0,29.92,WNW,297,0.0,0.0,100,0.00,,CLR,0.00,VWS V12.07,2013-06-30 10:38:00,
2013-06-30 05:39:00,46.0,46.0,29.92,WNW,297,0.0,0.0,100,0.00,,CLR,0.00,VWS V12.07,2013-06-30 10:39:00,
2013-06-30 05:40:00,46.2,46.2,29.91,WNW,297,0.0,0.0,100,0.00,,CLR,0.00,VWS V12.07,2013-06-30 10:40:00,
2013-06-30 05:41:00,46.0,46.0,29.92,WNW,297,0.0,0.0,100,0.00,,CLR,0.00,VWS V12.07,2013-06-30 10:41:00,
2013-06-30 05:43:00,46.0,46.0,29.93,WNW,297,0.0,0.0,100,0.00,,CLR,0.00,VWS V12.07,2013-06-30 10:43:00,
2013-06-30 05:44:00,46.0,46.0,29.93,WNW,297,0.0,0.0,100,0.00,,CLR,0.00,VWS V12.07,2013-06-30 10:44:00,
2013-06-30 05:45:00,46.0,46.0,29.93,WNW,297,0.0,0.0,100,0.00,,CLR,0.00,VWS V12.07,2013-06-30 10:45:00,
2013-06-30 05:46:00,46.0,46.0,29.93,WNW,297,0.0,0.0,100,0.00,,CLR,0.00,VWS V12.07,2013-06-30 10:46:00,
2013-06-30 05:48:00,46.0,46.0,29.93,WNW,297,0.0,0.0,100,0.00,,CLR,0.00,VWS V12.07,2013-06-30 10:48:00,
2013-06-30 05:50:00,46.0,46.0,29.93,WNW,297,0.0,0.0,100,0.00,,CLR,0.00,VWS V12.07,2013-06-30 10:50:00,
2013-06-30 05:51:00,46.0,46.0,29.93,WNW,297,0.0,0.0,100,0.00,,CLR,0.00,VWS V12.07,2013-06-30 10:51:00,
2013-06-30 05:54:00,46.0,46.0,29.93,WNW,297,0.0,0.0,100,0.00,,CLR,0.00,VWS V12.07,2013-06-30 10:54:00,
2013-06-30 05:55:00,46.0,46.0,29.93,WNW,297,0.0,0.0,100,0.00,,CLR,0.00,VWS V12.07,2013-06-30 10:55:00,
2013-06-30 05:56:00,46.1,46.1,29.93,WNW,297,0.0,0.0,100,0.00,,CLR,0.00,VWS V12.07,2013-06-30 10:56:00,
2013-06-30 05:57:00,46.1,46.1,29.93,WNW,297,0.0,0.0,100,0.00,,CLR,0.00,VWS V12.07,2013-06-30 10:57:00,
2013-06-30 05:59:00,46.1,46.1,29.93,WNW,297,0.0,0.0,100,0.00,,CLR,0.00,VWS V12.07,2013-06-30 10:59:00,
2013-06-30 06:00:00,46.1,46.1,29.93,WNW,297,0.0,0.0,100,0.00,,CLR,0.00,VWS V12.07,2013-06-30 11:00:00,
2013-06-30 06:01:00,46.1,46.1,29.93,WNW,297,0.0,0.0,100,0.00,,CLR,0.00,VWS V12.07,2013-06-30 11:01:00,
2013-06-30 06:02:00,46.1,46.1,29.93,WNW,297,0.0,0.0,100,0.00,,CLR,0.00,VWS V12.07,2013-06-30 11:02:00,
2013-06-30 06:03:00,46.1,46.1,29.93,WNW,297,0.0,0.0,100,0.00,,CLR,0.00,VWS V12.07,2013-06-30 11:03:00,
2013-06-30 06:04:00,46.1,46.1,29.93,WNW,297,0.0,0.0,100,0.00,,CLR,0.00,VWS V12.07,2013-06-30 11:04:00,
2013-06-30 06:05:00,46.1,46.1,29.93,WNW,297,0.0,0.0,100,0.00,,CLR,0.00,VWS V12.07,2013-06-30 11:05:00,
2013-06-30 06:06:00,46.1,46.1,29.93,WNW,297,0.0,0.0,100,0.00,,CLR,0.00,VWS V12.07,2013-06-30 11:06:00,
2013-06-30 06:07:00,46.1,46.1,29.93,WNW,297,0.0,0.0,100,0.00,,CLR,0.00,VWS V12.07,2013-06-30 11:07:00,
2013-06-30 06:09:00,46.2,46.2,29.93,WNW,297,0.0,0.0,100,0.00,,CLR,0.00,VWS V12.07,2013-06-30 11:09:00,
2013-06-30 06:10:00,46.2,46.2,29.93,WNW,297,0.0,0.0,100,0.00,,CLR,0.00,VWS V12.07,2013-06-30 11:10:00,
2013-06-30 06:12:00,46.2,46.2,29.93,WNW,297,0.0,0.0,100,0.00,,CLR,0.00,VWS V12.07,2013-06-30 11:12:00,
2013-06-30 06:13:00,46.2,46.2,29.94,WNW,297,0.0,0.0,100,0.00,,CLR,0.00,VWS V12.07,2013-06-30 11:13:00,
2013-06-30 06:14:00,46.4,46.4,29.94,WNW,297,0.0,0.0,100,0.00,,CLR,0.00,VWS V12.07,2013-06-30 11:14:00,
2013-06-30 06:15:00,46.4,46.4,29.94,WNW,297,0.0,0.0,100,0.00,,CLR,0.00,VWS V12.07,2013-06-30 11:15:00,
2013-06-30 06:18:00,46.5,46.5,29.94,WNW,297,0.0,0.0,100,0.00,,CLR,0.00,VWS V12.07,2013-06-30 11:18:00,
2013-06-30 06:19:00,46.7,46.7,29.94,WNW,297,0.0,0.0,100,0.00,,CLR,0.00,VWS V12.07,2013-06-30 11:19:00,
2013-06-30 06:20:00,46.7,46.7,29.94,WNW,297,0.0,0.0,100,0.00,,CLR,0.00,VWS V12.07,2013-06-30 11:20:00,
2013-06-30 06:21:00,46.7,46.7,29.94,WNW,297,0.0,0.0,100,0.00,,CLR,0.00,VWS V12.07,2013-06-30 11:21:00,
2013-06-30 06:23:00,46.8,46.8,29.94,WNW,297,0.0,0.0,100,0.00,,CLR,0.00,VWS V12.07,2013-06-30 11:23:00,
2013-06-30 06:26:00,46.8,46.8,29.94,WNW,297,0.0,0.0,100,0.00,,CLR,0.00,VWS V12.07,2013-06-30 11:26:00,
2013-06-30 06:28:00,47.0,47.0,29.94,WNW,297,0.0,0.0,100,0.00,,CLR,0.00,VWS V12.07,2013-06-30 11:28:00,
2013-06-30 06:29:00,47.1,47.1,29.94,WNW,297,0.0,0.0,100,0.00,,CLR,0.00,VWS V12.07,2013-06-30 11:29:00,
2013-06-30 06:30:00,46.2,46.2,29.94,WNW,297,0.0,0.0,100,0.00,,CLR,0.00,VWS V12.07,2013-06-30 11:30:00,
2013-06-30 06:31:00,47.3,47.3,29.94,WNW,297,0.0,0.0,100,0.00,,CLR,0.00,VWS V12.07,2013-06-30 11:31:00,
2013-06-30 06:32:00,47.4,47.4,29.94,WNW,297,0.0,0.0,100,0.00,,CLR,0.00,VWS V12.07,2013-06-30 11:32:00,
2013-06-30 06:33:00,47.6,47.6,29.94,WNW,297,0.0,0.0,100,0.00,,CLR,0.00,VWS V12.07,2013-06-30 11:33:00,
2013-06-30 06:34:00,47.6,47.6,29.94,WNW,297,0.0,0.0,100,0.00,,CLR,0.00,VWS V12.07,2013-06-30 11:34:00,
2013-06-30 06:36:00,47.7,47.7,29.94,WNW,297,0.0,0.0,100,0.00,,CLR,0.00,VWS V12.07,2013-06-30 11:36:00,
2013-06-30 06:37:00,47.9,47.9,29.94,WNW,297,0.0,0.0,100,0.00,,CLR,0.00,VWS V12.07,2013-06-30 11:37:00,
2013-06-30 06:38:00,48.0,48.0,29.94,WNW,297,0.0,0.0,100,0.00,,CLR,0.00,VWS V12.07,2013-06-30 11:38:00,
2013-06-30 06:39:00,48.0,48.0,29.94,WNW,297,0.0,0.0,100,0.00,,CLR,0.00,VWS V12.07,2013-06-30 11:39:00,
2013-06-30 06:40:00,46.8,46.8,29.94,WNW,297,0.0,0.0,100,0.00,,CLR,0.00,VWS V12.07,2013-06-30 11:40:00,
2013-06-30 06:41:00,48.2,48.2,29.94,WNW,297,0.0,0.0,100,0.00,,CLR,0.00,VWS V12.07,2013-06-30 11:41:00,
2013-06-30 06:42:00,48.2,48.2,29.94,WNW,297,0.0,0.0,100,0.00,,CLR,0.00,VWS V12.07,2013-06-30 11:42:00,
2013-06-30 06:44:00,48.3,48.3,29.94,WNW,297,0.0,0.0,100,0.00,,CLR,0.00,VWS V12.07,2013-06-30 11:44:00,
2013-06-30 06:45:00,48.5,48.5,29.94,WNW,297,0.0,0.0,100,0.00,,CLR,0.00,VWS V12.07,2013-06-30 11:45:00,
2013-06-30 06:46:00,48.5,48.5,29.94,WNW,297,0.0,0.0,100,0.00,,CLR,0.00,VWS V12.07,2013-06-30 11:46:00,
2013-06-30 06:47:00,48.6,48.6,29.94,WNW,297,0.0,0.0,100,0.00,,CLR,0.00,VWS V12.07,2013-06-30 11:47:00,
2013-06-30 06:49:00,48.8,48.8,29.94,WNW,297,0.0,0.0,100,0.00,,CLR,0.00,VWS V12.07,2013-06-30 11:49:00,
2013-06-30 06:50:00,48.8,48.8,29.94,WNW,297,0.0,0.0,100,0.00,,CLR,0.00,VWS V12.07,2013-06-30 11:50:00,
2013-06-30 06:51:00,48.8,48.8,29.94,WNW,297,0.0,0.0,100,0.00,,CLR,0.00,VWS V12.07,2013-06-30 11:51:00,
2013-06-30 06:52:00,48.9,48.9,29.94,WNW,297,0.0,0.0,100,0.00,,CLR,0.00,VWS V12.07,2013-06-30 11:52:00,
2013-06-30 06:53:00,48.9,48.9,29.94,WNW,297,0.0,0.0,100,0.00,,CLR,0.00,VWS V12.07,2013-06-30 11:53:00,
2013-06-30 06:55:00,49.1,49.1,29.94,WNW,297,0.0,0.0,100,0.00,,CLR,0.00,VWS V12.07,2013-06-30 11:55:00,
2013-06-30 06:56:00,49.1,49.1,29.94,WNW,297,0.0,0.0,100,0.00,,CLR,0.00,VWS V12.07,2013-06-30 11:56:00,
2013-06-30 06:57:00,49.2,49.2,29.94,WNW,297,0.0,0.0,100,0.00,,CLR,0.00,VWS V12.07,2013-06-30 11:57:00,
2013-06-30 06:58:00,49.2,49.2,29.95,WNW,297,0.0,0.0,100,0.00,,CLR,0.00,VWS V12.07,2013-06-30 11:58:00,
2013-06-30 07:00:00,49.4,49.4,29.95,WNW,297,0.0,0.0,100,0.00,,CLR,0.00,VWS V12.07,2013-06-30 12:00:00,
2013-06-30 07:01:00,49.5,49.5,29.95,WNW,297,0.0,0.0,100,0.00,,CLR,0.00,VWS V12.07,2013-06-30 12:01:00,
2013-06-30 07:02:00,49.5,49.5,29.95,WNW,297,0.0,0.0,100,0.00,,CLR,0.00,VWS V12.07,2013-06-30 12:02:00,
2013-06-30 07:03:00,49.6,49.6,29.95,WNW,297,0.0,0.0,100,0.00,,CLR,0.00,VWS V12.07,2013-06-30 12:03:00,
2013-06-30 07:05:00,49.8,49.8,29.95,WNW,297,0.0,0.0,100,0.00,,CLR,0.00,VWS V12.07,2013-06-30 12:05:00,
2013-06-30 07:06:00,49.8,49.8,29.95,WNW,297,0.0,0.0,100,0.00,,CLR,0.00,VWS V12.07,2013-06-30 12:06:00,
2013-06-30 07:07:00,49.9,49.9,29.95,WNW,297,0.0,0.0,100,0.00,,CLR,0.00,VWS V12.07,2013-06-30 12:07:00,
2013-06-30 07:09:00,50.1,50.1,29.95,WNW,297,0.0,0.0,100,0.00,,CLR,0.00,VWS V12.07,2013-06-30 12:09:00,
2013-06-30 07:10:00,50.2,50.2,29.95,WNW,297,0.0,0.0,100,0.00,,CLR,0.00,VWS V12.07,2013-06-30 12:10:00,
2013-06-30 07:12:00,50.4,50.4,29.95,WNW,297,0.0,0.0,100,0.00,,CLR,0.00,VWS V12.07,2013-06-30 12:12:00,
2013-06-30 07:14:00,50.5,50.5,29.95,WNW,297,0.0,0.0,100,0.00,,CLR,0.00,VWS V12.07,2013-06-30 12:14:00,
2013-06-30 07:15:00,50.7,50.7,29.95,WNW,297,0.0,0.0,100,0.00,,CLR,0.00,VWS V12.07,2013-06-30 12:15:00,
2013-06-30 07:17:00,50.8,50.8,29.95,WNW,297,0.0,0.0,100,0.00,,CLR,0.00,VWS V12.07,2013-06-30 12:17:00,
2013-06-30 07:18:00,51.0,51.0,29.95,WNW,297,0.0,0.0,100,0.00,,CLR,0.00,VWS V12.07,2013-06-30 12:18:00,
2013-06-30 07:20:00,51.1,51.1,29.95,WNW,297,0.0,0.0,100,0.00,,CLR,0.00,VWS V12.07,2013-06-30 12:20:00,
2013-06-30 07:22:00,51.3,51.3,29.95,WNW,297,0.0,0.0,100,0.00,,CLR,0.00,VWS V12.07,2013-06-30 12:22:00,
2013-06-30 07:23:00,51.4,51.4,29.95,WNW,297,0.0,0.0,100,0.00,,CLR,0.00,VWS V12.07,2013-06-30 12:23:00,
2013-06-30 07:25:00,51.6,51.6,29.95,WNW,297,0.0,0.0,100,0.00,,CLR,0.00,VWS V12.07,2013-06-30 12:25:00,
2013-06-30 07:27:00,52.0,52.0,29.95,WNW,297,0.0,0.0,100,0.00,,CLR,0.00,VWS V12.07,2013-06-30 12:27:00,
2013-06-30 07:28:00,52.0,52.0,29.94,WNW,297,0.0,0.0,100,0.00,,CLR,0.00,VWS V12.07,2013-06-30 12:28:00,
2013-06-30 07:30:00,52.3,52.3,29.94,WNW,297,0.0,0.0,100,0.00,,CLR,0.00,VWS V12.07,2013-06-30 12:30:00,
2013-06-30 07:31:00,52.5,52.5,29.94,WNW,297,0.0,0.0,100,0.00,,CLR,0.00,VWS V12.07,2013-06-30 12:31:00,
2013-06-30 07:33:00,52.6,52.6,29.94,WNW,297,0.0,0.0,100,0.00,,CLR,0.00,VWS V12.07,2013-06-30 12:33:00,
2013-06-30 07:35:00,52.9,52.9,29.94,WNW,297,0.0,0.0,100,0.00,,CLR,0.00,VWS V12.07,2013-06-30 12:35:00,
2013-06-30 07:36:00,53.1,53.1,29.94,WNW,297,0.0,0.0,100,0.00,,CLR,0.00,VWS V12.07,2013-06-30 12:36:00,
2013-06-30 07:38:00,53.2,53.2,29.94,WNW,297,0.0,0.0,100,0.00,,CLR,0.00,VWS V12.07,2013-06-30 12:38:00,
2013-06-30 07:40:00,51.4,51.4,29.95,WNW,297,0.0,0.0,100,0.00,,CLR,0.00,VWS V12.07,2013-06-30 12:40:00,
2013-06-30 07:41:00,53.3,53.3,29.94,WNW,297,0.0,0.0,100,0.00,,CLR,0.00,VWS V12.07,2013-06-30 12:41:00,
2013-06-30 07:43:00,53.8,53.8,29.94,WNW,297,0.0,0.0,100,0.00,,CLR,0.00,VWS V12.07,2013-06-30 12:43:00,
2013-06-30 07:44:00,53.8,53.8,29.94,WNW,297,0.0,0.0,100,0.00,,CLR,0.00,VWS V12.07,2013-06-30 12:44:00,
2013-06-30 07:45:00,53.9,53.9,29.94,WNW,297,0.0,0.0,100,0.00,,CLR,0.00,VWS V12.07,2013-06-30 12:45:00,
2013-06-30 07:46:00,53.9,53.9,29.94,WNW,297,0.0,0.0,100,0.00,,CLR,0.00,VWS V12.07,2013-06-30 12:46:00,
2013-06-30 07:47:00,54.1,54.1,29.94,WNW,297,0.0,0.0,100,0.00,,CLR,0.00,VWS V12.07,2013-06-30 12:47:00,
2013-06-30 07:49:00,54.4,54.4,29.94,WNW,297,0.0,0.0,100,0.00,,CLR,0.00,VWS V12.07,2013-06-30 12:49:00,
2013-06-30 07:50:00,54.7,54.7,29.94,WNW,297,0.0,0.0,100,0.00,,CLR,0.00,VWS V12.07,2013-06-30 12:50:00,
2013-06-30 07:51:00,54.8,54.8,29.94,WNW,297,0.0,0.0,100,0.00,,CLR,0.00,VWS V12.07,2013-06-30 12:51:00,
2013-06-30 07:52:00,54.8,54.8,29.94,WNW,297,0.0,0.0,100,0.00,,CLR,0.00,VWS V12.07,2013-06-30 12:52:00,
2013-06-30 07:54:00,55.0,54.7,29.94,WNW,297,0.0,0.0,99,0.00,,CLR,0.00,VWS V12.07,2013-06-30 12:54:00,
2013-06-30 07:55:00,55.3,55.0,29.94,WNW,297,0.0,0.0,99,0.00,,CLR,0.00,VWS V12.07,2013-06-30 12:55:00,
2013-06-30 07:57:00,55.3,54.8,29.94,WNW,297,0.0,0.0,98,0.00,,CLR,0.00,VWS V12.07,2013-06-30 12:57:00,
2013-06-30 07:59:00,55.6,54.8,29.94,WNW,297,0.0,0.0,97,0.00,,CLR,0.00,VWS V12.07,2013-06-30 12:59:00,
2013-06-30 08:00:00,55.7,54.9,29.94,WNW,297,0.0,0.0,97,0.00,,CLR,0.00,VWS V12.07,2013-06-30 13:00:00,
2013-06-30 08:02:00,55.9,54.5,29.94,WNW,297,0.0,0.0,95,0.00,,CLR,0.00,VWS V12.07,2013-06-30 13:02:00,
2013-06-30 08:03:00,55.9,53.3,29.94,WNW,297,0.0,0.0,91,0.00,,CLR,0.00,VWS V12.07,2013-06-30 13:03:00,
2013-06-30 08:05:00,56.2,53.9,29.94,WNW,297,0.0,0.0,92,0.00,,CLR,0.00,VWS V12.07,2013-06-30 13:05:00,
2013-06-30 08:06:00,56.3,53.7,29.94,WNW,297,0.0,0.0,91,0.00,,CLR,0.00,VWS V12.07,2013-06-30 13:06:00,
2013-06-30 08:08:00,56.5,53.6,29.94,WNW,297,0.0,0.0,90,0.00,,CLR,0.00,VWS V12.07,2013-06-30 13:08:00,
2013-06-30 08:09:00,56.6,53.4,29.94,WNW,297,0.0,0.0,89,0.00,,CLR,0.00,VWS V12.07,2013-06-30 13:09:00,
2013-06-30 08:10:00,56.9,53.4,29.94,WNW,297,0.0,0.0,88,0.00,,CLR,0.00,VWS V12.07,2013-06-30 13:10:00,
2013-06-30 08:11:00,56.9,53.7,29.94,WNW,297,0.0,0.0,89,0.00,,CLR,0.00,VWS V12.07,2013-06-30 13:11:00,
2013-06-30 08:13:00,57.2,53.7,29.94,NW,321,0.0,0.0,88,0.00,,CLR,0.00,VWS V12.07,2013-06-30 13:13:00,
2013-06-30 08:14:00,57.3,53.8,29.94,NW,320,0.0,0.0,88,0.00,,CLR,0.00,VWS V12.07,2013-06-30 13:14:00,
2013-06-30 08:16:00,57.6,54.1,29.94,NW,321,0.0,0.0,88,0.00,,CLR,0.00,VWS V12.07,2013-06-30 13:16:00,
2013-06-30 08:17:00,57.8,54.0,29.94,NW,321,0.0,0.0,87,0.00,,CLR,0.00,VWS V12.07,2013-06-30 13:17:00,
2013-06-30 08:19:00,58.1,53.9,29.94,NW,321,0.0,0.0,86,0.00,,CLR,0.00,VWS V12.07,2013-06-30 13:19:00,
2013-06-30 08:20:00,55.9,53.3,29.94,WNW,297,0.0,0.0,91,0.00,,CLR,0.00,VWS V12.07,2013-06-30 13:20:00,
2013-06-30 08:21:00,58.4,53.9,29.94,NW,321,0.0,0.0,85,0.00,,CLR,0.00,VWS V12.07,2013-06-30 13:21:00,
2013-06-30 08:22:00,58.4,53.9,29.94,NW,321,0.0,0.0,85,0.00,,CLR,0.00,VWS V12.07,2013-06-30 13:22:00,
2013-06-30 08:23:00,58.6,53.8,29.94,NW,320,0.0,0.0,84,0.00,,CLR,0.00,VWS V12.07,2013-06-30 13:23:00,
2013-06-30 08:24:00,58.7,53.2,29.94,NW,320,0.0,0.0,82,0.00,,CLR,0.00,VWS V12.07,2013-06-30 13:24:00,
2013-06-30 08:26:00,59.0,52.8,29.94,NW,320,0.0,0.0,80,0.00,,CLR,0.00,VWS V12.07,2013-06-30 13:26:00,
2013-06-30 08:27:00,59.2,53.4,29.94,NW,320,0.0,0.0,81,0.00,,CLR,0.00,VWS V12.07,2013-06-30 13:27:00,
2013-06-30 08:29:00,59.3,53.1,29.95,NW,320,0.0,0.0,80,0.00,,CLR,0.00,VWS V12.07,2013-06-30 13:29:00,
2013-06-30 08:30:00,57.3,53.8,29.94,NW,321,0.0,0.0,88,0.00,,CLR,0.00,VWS V12.07,2013-06-30 13:30:00,
2013-06-30 08:32:00,59.6,52.0,29.95,NW,320,0.0,0.0,76,0.00,,CLR,0.00,VWS V12.07,2013-06-30 13:32:00,
2013-06-30 08:34:00,60.1,51.1,29.95,NW,320,0.0,0.0,72,0.00,,CLR,0.00,VWS V12.07,2013-06-30 13:34:00,
2013-06-30 08:35:00,60.2,51.9,29.95,NW,320,0.0,0.0,74,0.00,,CLR,0.00,VWS V12.07,2013-06-30 13:35:00,
2013-06-30 08:37:00,60.5,51.4,29.95,NW,321,0.0,0.0,72,0.00,,CLR,0.00,VWS V12.07,2013-06-30 13:37:00,
2013-06-30 08:39:00,60.9,51.8,29.95,NW,320,0.0,0.0,72,0.00,,CLR,0.00,VWS V12.07,2013-06-30 13:39:00,
2013-06-30 08:40:00,61.0,52.3,29.95,NW,320,0.0,0.0,73,0.00,,CLR,0.00,VWS V12.07,2013-06-30 13:40:00,
2013-06-30 08:41:00,61.0,52.3,29.95,NW,320,0.0,0.0,73,0.00,,CLR,0.00,VWS V12.07,2013-06-30 13:41:00,
2013-06-30 08:42:00,61.3,51.1,29.95,NW,320,0.0,0.0,69,0.00,,CLR,0.00,VWS V12.07,2013-06-30 13:42:00,
2013-06-30 08:44:00,61.6,52.1,29.95,NW,320,0.0,0.0,71,0.00,,CLR,0.00,VWS V12.07,2013-06-30 13:44:00,
2013-06-30 08:45:00,62.0,51.7,29.95,North,0,0.0,1.0,69,0.00,,CLR,0.00,VWS V12.07,2013-06-30 13:45:00,
2013-06-30 08:46:00,62.0,50.9,29.95,North,0,0.0,1.0,67,0.00,,CLR,0.00,VWS V12.07,2013-06-30 13:46:00,
2013-06-30 08:47:00,62.3,50.8,29.95,North,0,0.0,1.0,66,0.00,,CLR,0.00,VWS V12.07,2013-06-30 13:47:00,
2013-06-30 08:50:00,62.6,51.9,29.95,North,0,1.0,2.0,68,0.00,,CLR,0.00,VWS V12.07,2013-06-30 13:50:00,
2013-06-30 08:51:00,62.9,50.5,29.95,North,0,0.0,2.0,64,0.00,,CLR,0.00,VWS V12.07,2013-06-30 13:51:00,
2013-06-30 08:53:00,63.2,52.5,29.95,North,0,0.0,2.0,68,0.00,,CLR,0.00,VWS V12.07,2013-06-30 13:53:00,
2013-06-30 08:55:00,63.4,52.7,29.95,North,0,0.0,2.0,68,0.00,,CLR,0.00,VWS V12.07,2013-06-30 13:55:00,
2013-06-30 08:56:00,63.5,52.4,29.95,North,0,0.0,2.0,67,0.00,,CLR,0.00,VWS V12.07,2013-06-30 13:56:00,
2013-06-30 08:57:00,63.9,52.3,29.95,North,0,0.0,2.0,66,0.00,,CLR,0.00,VWS V12.07,2013-06-30 13:57:00,
2013-06-30 08:58:00,64.0,52.0,29.95,North,0,0.0,2.0,65,0.00,,CLR,0.00,VWS V12.07,2013-06-30 13:58:00,
2013-06-30 09:00:00,64.2,52.2,29.95,North,0,0.0,2.0,65,0.00,,CLR,0.00,VWS V12.07,2013-06-30 14:00:00,
2013-06-30 09:01:00,64.3,52.3,29.95,North,0,0.0,2.0,65,0.00,,CLR,0.00,VWS V12.07,2013-06-30 14:01:00,
2013-06-30 09:03:00,64.5,52.1,29.95,North,0,0.0,2.0,64,0.00,,CLR,0.00,VWS V12.07,2013-06-30 14:03:00,
2013-06-30 09:05:00,64.8,51.0,29.95,SE,129,0.0,2.0,61,0.00,,CLR,0.00,VWS V12.07,2013-06-30 14:05:00,
2013-06-30 09:06:00,65.0,51.7,29.95,SE,129,0.0,2.0,62,0.00,,CLR,0.00,VWS V12.07,2013-06-30 14:06:00,
2013-06-30 09:08:00,65.2,51.9,29.95,SE,129,0.0,2.0,62,0.00,,CLR,0.00,VWS V12.07,2013-06-30 14:08:00,
2013-06-30 09:10:00,63.2,52.5,29.95,North,0,0.0,2.0,68,0.00,,CLR,0.00,VWS V12.07,2013-06-30 14:10:00,
2013-06-30 09:11:00,65.5,52.6,29.95,SE,129,0.0,2.0,63,0.00,,CLR,0.00,VWS V12.07,2013-06-30 14:11:00,
2013-06-30 09:12:00,65.5,51.3,29.95,SE,129,0.0,2.0,60,0.00,,CLR,0.00,VWS V12.07,2013-06-30 14:12:00,
2013-06-30 09:13:00,65.6,52.7,29.95,SE,129,0.0,2.0,63,0.00,,CLR,0.00,VWS V12.07,2013-06-30 14:13:00,
2013-06-30 09:14:00,65.8,51.5,29.95,East,91,0.0,2.0,60,0.00,,CLR,0.00,VWS V12.07,2013-06-30 14:14:00,
2013-06-30 09:16:00,66.0,48.9,29.95,NNE,14,0.0,5.0,54,0.00,,CLR,0.00,VWS V12.07,2013-06-30 14:16:00,
2013-06-30 09:17:00,66.0,48.9,29.95,NNE,14,1.0,5.0,54,0.00,,CLR,0.00,VWS V12.07,2013-06-30 14:17:00,
2013-06-30 09:18:00,66.1,52.3,29.95,NNE,14,0.0,5.0,61,0.00,,CLR,0.00,VWS V12.07,2013-06-30 14:18:00,
2013-06-30 09:19:00,66.1,52.3,29.95,NNE,14,0.0,5.0,61,0.00,,CLR,0.00,VWS V12.07,2013-06-30 14:19:00,
2013-06-30 09:20:00,64.7,52.3,29.95,North,0,0.0,0.0,64,0.00,,CLR,0.00,VWS V12.07,2013-06-30 14:20:00,
2013-06-30 09:22:00,66.4,50.2,29.95,NNE,14,0.0,5.0,56,0.00,,CLR,0.00,VWS V12.07,2013-06-30 14:22:00,
2013-06-30 09:23:00,66.4,50.2,29.95,North,8,0.0,5.0,56,0.00,,CLR,0.00,VWS V12.07,2013-06-30 14:23:00,
2013-06-30 09:24:00,66.4,49.8,29.95,North,8,0.0,5.0,55,0.00,,CLR,0.00,VWS V12.07,2013-06-30 14:24:00,
2013-06-30 09:27:00,66.6,49.5,29.95,NNE,19,0.0,5.0,54,0.00,,CLR,0.00,VWS V12.07,2013-06-30 14:27:00,
2013-06-30 09:28:00,66.6,50.4,29.95,NNE,19,0.0,5.0,56,0.00,,CLR,0.00,VWS V12.07,2013-06-30 14:28:00,
2013-06-30 09:29:00,66.6,51.8,29.95,NNE,19,0.0,5.0,59,0.00,,CLR,0.00,VWS V12.07,2013-06-30 14:29:00,
2013-06-30 09:30:00,66.6,51.8,29.95,NNE,19,0.0,5.0,59,0.00,,CLR,0.00,VWS V12.07,2013-06-30 14:30:00,
2013-06-30 09:32:00,66.8,53.4,29.95,NNE,19,0.0,5.0,62,0.00,,CLR,0.00,VWS V12.07,2013-06-30 14:32:00,
2013-06-30 09:34:00,66.9,51.2,29.95,NNE,19,0.0,5.0,57,0.00,,CLR,0.00,VWS V12.07,2013-06-30 14:34:00,
2013-06-30 09:35:00,67.1,52.8,29.95,NNE,19,0.0,5.0,60,0.00,,CLR,0.00,VWS V12.07,2013-06-30 14:35:00,
2013-06-30 09:37:00,67.4,51.7,29.95,NNE,19,0.0,5.0,57,0.00,,CLR,0.00,VWS V12.07,2013-06-30 14:37:00,
2013-06-30 09:39:00,67.8,53.0,29.95,NNE,19,0.0,5.0,59,0.00,,CLR,0.00,VWS V12.07,2013-06-30 14:39:00,
2013-06-30 09:40:00,67.8,51.1,29.95,NNE,19,0.0,5.0,55,0.00,,CLR,0.00,VWS V12.07,2013-06-30 14:40:00,
2013-06-30 09:42:00,67.9,52.6,29.95,NE,56,1.0,5.0,58,0.00,,CLR,0.00,VWS V12.07,2013-06-30 14:42:00,
2013-06-30 09:44:00,68.1,51.8,29.95,NNE,23,0.0,5.0,56,0.00,,CLR,0.00,VWS V12.07,2013-06-30 14:44:00,
2013-06-30 09:45:00,68.1,51.8,29.95,NNE,23,0.0,5.0,56,0.00,,CLR,0.00,VWS V12.07,2013-06-30 14:45:00,
2013-06-30 09:47:00,68.1,52.8,29.95,NNE,24,0.0,5.0,58,0.00,,CLR,0.00,VWS V12.07,2013-06-30 14:47:00,
2013-06-30 09:49:00,68.3,53.9,29.95,NNE,25,0.0,5.0,60,0.00,,CLR,0.00,VWS V12.07,2013-06-30 14:49:00,
2013-06-30 09:50:00,68.3,50.5,29.95,North,11,2.0,6.0,53,0.00,,CLR,0.00,VWS V12.07,2013-06-30 14:50:00,
2013-06-30 09:51:00,68.3,50.5,29.95,North,8,0.0,6.0,53,0.00,,CLR,0.00,VWS V12.07,2013-06-30 14:51:00,
2013-06-30 09:52:00,68.3,51.0,29.95,ENE,77,1.0,6.0,54,0.00,,CLR,0.00,VWS V12.07,2013-06-30 14:52:00,
2013-06-30 09:55:00,68.3,47.9,29.95,ENE,69,1.0,6.0,48,0.00,,CLR,0.00,VWS V12.07,2013-06-30 14:55:00,
2013-06-30 09:56:00,68.3,47.9,29.95,NNE,23,1.0,6.0,48,0.00,,CLR,0.00,VWS V12.07,2013-06-30 14:56:00,
2013-06-30 09:58:00,68.4,48.0,29.96,East,83,0.0,6.0,48,0.00,,CLR,0.00,VWS V12.07,2013-06-30 14:58:00,
2013-06-30 10:00:00,68.6,49.2,29.96,NE,44,0.0,6.0,50,0.00,,CLR,0.00,VWS V12.07,2013-06-30 15:00:00,
2013-06-30 10:01:00,68.6,51.3,29.96,North,4,2.0,6.0,54,0.00,,CLR,0.00,VWS V12.07,2013-06-30 15:01:00,
2013-06-30 10:03:00,68.8,51.5,29.96,North,0,0.0,6.0,54,0.00,,CLR,0.00,VWS V12.07,2013-06-30 15:03:00,
2013-06-30 10:05:00,68.8,51.5,29.96,North,0,0.0,6.0,54,0.00,,CLR,0.00,VWS V12.07,2013-06-30 15:05:00,
2013-06-30 10:06:00,68.9,51.6,29.96,North,0,0.0,6.0,54,0.00,,CLR,0.00,VWS V12.07,2013-06-30 15:06:00,
2013-06-30 10:08:00,69.1,49.7,29.96,NNW,336,2.0,6.0,50,0.00,,CLR,0.00,VWS V12.07,2013-06-30 15:08:00,
2013-06-30 10:10:00,69.3,48.8,29.96,NNW,337,0.0,6.0,48,0.00,,CLR,0.00,VWS V12.07,2013-06-30 15:10:00,
2013-06-30 10:11:00,69.4,48.9,29.96,NNW,337,0.0,6.0,48,0.00,,CLR,0.00,VWS V12.07,2013-06-30 15:11:00,
2013-06-30 10:12:00,69.6,50.7,29.96,NE,41,2.0,6.0,51,0.00,,CLR,0.00,VWS V12.07,2013-06-30 15:12:00,
2013-06-30 10:13:00,69.8,48.1,29.95,NE,53,2.0,6.0,46,0.00,,CLR,0.00,VWS V12.07,2013-06-30 15:13:00,
2013-06-30 10:16:00,69.8,50.3,29.95,NE,54,1.0,6.0,50,0.00,,CLR,0.00,VWS V12.07,2013-06-30 15:16:00,
2013-06-30 10:17:00,69.9,52.5,29.95,NE,56,0.0,6.0,54,0.00,,CLR,0.00,VWS V12.07,2013-06-30 15:17:00,
2013-06-30 10:18:00,69.9,52.5,29.95,NNE,19,4.0,6.0,54,0.00,,CLR,0.00,VWS V12.07,2013-06-30 15:18:00,
2013-06-30 10:20:00,68.8,51.0,29.96,North,0,0.0,5.0,53,0.00,,CLR,0.00,VWS V12.07,2013-06-30 15:20:00,
2013-06-30 10:21:00,69.9,48.8,29.95,NNE,25,0.0,6.0,47,0.00,,CLR,0.00,VWS V12.07,2013-06-30 15:21:00,
2013-06-30 10:22:00,69.9,49.9,29.95,ENE,60,0.0,6.0,49,0.00,,CLR,0.00,VWS V12.07,2013-06-30 15:22:00,
2013-06-30 10:23:00,69.9,47.0,29.95,NE,37,3.0,6.0,44,0.00,,CLR,0.00,VWS V12.07,2013-06-30 15:23:00,
2013-06-30 10:25:00,69.8,46.3,29.95,NNE,32,2.0,6.0,43,0.00,,CLR,0.00,VWS V12.07,2013-06-30 15:25:00,
2013-06-30 10:26:00,69.8,46.9,29.95,NNE,33,3.0,6.0,44,0.00,,CLR,0.00,VWS V12.07,2013-06-30 15:26:00,
2013-06-30 10:27:00,69.8,46.9,29.95,NE,34,2.0,6.0,44,0.00,,CLR,0.00,VWS V12.07,2013-06-30 15:27:00,
2013-06-30 10:28:00,69.9,48.2,29.96,NNW,343,0.0,6.0,46,0.00,,CLR,0.00,VWS V12.07,2013-06-30 15:28:00,
2013-06-30 10:30:00,69.8,48.1,29.95,NE,54,2.0,3.0,46,0.00,,CLR,0.00,VWS V12.07,2013-06-30 15:30:00,
2013-06-30 10:35:00,70.4,48.7,29.96,NNE,22,1.0,5.0,46,0.00,,CLR,0.00,VWS V12.07,2013-06-30 15:35:00,
2013-06-30 10:36:00,70.8,47.8,29.96,East,82,0.0,5.0,44,0.00,,CLR,0.00,VWS V12.07,2013-06-30 15:36:00,
2013-06-30 10:41:00,71.3,48.3,29.96,ENE,58,0.0,6.0,44,0.00,,CLR,0.00,VWS V12.07,2013-06-30 15:41:00,
2013-06-30 10:46:00,71.3,50.0,29.95,NE,41,0.0,3.0,47,0.00,,CLR,0.00,VWS V12.07,2013-06-30 15:46:00,
2013-06-30 10:51:00,71.5,46.6,29.95,NNE,30,1.0,9.0,41,0.00,,CLR,0.00,VWS V12.07,2013-06-30 15:51:00,
2013-06-30 10:52:00,71.5,45.3,29.95,North,0,4.0,9.0,39,0.00,,CLR,0.00,VWS V12.07,2013-06-30 15:52:00,
2013-06-30 10:56:00,71.8,49.3,29.95,NNE,30,0.0,3.0,45,0.00,,CLR,0.00,VWS V12.07,2013-06-30 15:56:00,
2013-06-30 10:57:00,71.8,46.9,29.95,NNE,30,2.0,3.0,41,0.00,,CLR,0.00,VWS V12.07,2013-06-30 15:57:00,
2013-06-30 11:01:00,71.8,43.4,29.96,North,0,1.0,5.0,36,0.00,,CLR,0.00,VWS V12.07,2013-06-30 16:01:00,
2013-06-30 11:02:00,72.0,44.3,29.96,North,0,1.0,5.0,37,0.00,,CLR,0.00,VWS V12.07,2013-06-30 16:02:00,
2013-06-30 11:03:00,72.0,45.7,29.96,WNW,300,0.0,7.0,39,0.00,,CLR,0.00,VWS V12.07,2013-06-30 16:03:00,
2013-06-30 11:06:00,72.0,43.6,29.96,NE,49,0.0,4.0,36,0.00,,CLR,0.00,VWS V12.07,2013-06-30 16:06:00,
2013-06-30 11:07:00,72.0,45.7,29.96,NE,49,0.0,4.0,39,0.00,,CLR,0.00,VWS V12.07,2013-06-30 16:07:00,
2013-06-30 11:08:00,72.0,45.7,29.96,NE,49,0.0,4.0,39,0.00,,CLR,0.00,VWS V12.07,2013-06-30 16:08:00,
2013-06-30 11:11:00,72.3,43.9,29.96,NE,53,1.0,4.0,36,0.00,,CLR,0.00,VWS V12.07,2013-06-30 16:11:00,
2013-06-30 11:13:00,72.3,45.3,29.96,NE,53,0.0,4.0,38,0.00,,CLR,0.00,VWS V12.07,2013-06-30 16:13:00,
2013-06-30 11:14:00,72.5,47.5,29.96,North,3,1.0,4.0,41,0.00,,CLR,0.00,VWS V12.07,2013-06-30 16:14:00,
2013-06-30 11:17:00,72.8,46.4,29.96,North,8,0.0,4.0,39,0.00,,CLR,0.00,VWS V12.07,2013-06-30 16:17:00,
2013-06-30 11:18:00,73.0,47.3,29.96,North,8,0.0,4.0,40,0.00,,CLR,0.00,VWS V12.07,2013-06-30 16:18:00,
2013-06-30 11:19:00,73.0,45.9,29.96,NNE,20,2.0,4.0,38,0.00,,CLR,0.00,VWS V12.07,2013-06-30 16:19:00,
2013-06-30 11:20:00,73.2,43.9,29.96,NNW,335,2.0,6.0,35,0.00,,CLR,0.00,VWS V12.07,2013-06-30 16:20:00,
2013-06-30 11:22:00,73.2,43.2,29.96,NNE,13,2.0,6.0,34,0.00,,CLR,0.00,VWS V12.07,2013-06-30 16:22:00,
2013-06-30 11:23:00,73.2,43.9,29.96,NNE,32,2.0,6.0,35,0.00,,CLR,0.00,VWS V12.07,2013-06-30 16:23:00,
2013-06-30 11:24:00,73.2,46.8,29.96,NNE,16,2.0,6.0,39,0.00,,CLR,0.00,VWS V12.07,2013-06-30 16:24:00,
2013-06-30 11:26:00,73.2,43.9,29.96,NE,39,0.0,10.0,35,0.00,,CLR,0.00,VWS V12.07,2013-06-30 16:26:00,
2013-06-30 11:28:00,73.0,45.2,29.95,NNW,327,1.0,10.0,37,0.00,,CLR,0.00,VWS V12.07,2013-06-30 16:28:00,
2013-06-30 11:29:00,72.8,46.4,29.95,NW,309,2.0,10.0,39,0.00,,CLR,0.00,VWS V12.07,2013-06-30 16:29:00,
2013-06-30 11:30:00,72.7,45.0,29.95,NW,309,0.0,10.0,37,0.00,,CLR,0.00,VWS V12.07,2013-06-30 16:30:00,
2013-06-30 11:31:00,72.7,45.0,29.95,ENE,60,1.0,10.0,37,0.00,,CLR,0.00,VWS V12.07,2013-06-30 16:31:00,
2013-06-30 11:33:00,72.7,46.3,29.95,NE,49,1.0,10.0,39,0.00,,CLR,0.00,VWS V12.07,2013-06-30 16:33:00,
2013-06-30 11:34:00,72.7,46.3,29.95,ENE,57,0.0,10.0,39,0.00,,CLR,0.00,VWS V12.07,2013-06-30 16:34:00,
2013-06-30 11:35:00,72.7,46.3,29.95,ENE,57,1.0,10.0,39,0.00,,CLR,0.00,VWS V12.07,2013-06-30 16:35:00,
2013-06-30 11:36:00,72.7,46.3,29.95,NNE,15,3.0,5.0,39,0.00,,CLR,0.00,VWS V12.07,2013-06-30 16:36:00,
2013-06-30 11:39:00,72.8,42.0,29.95,NNW,338,1.0,5.0,33,0.00,,CLR,0.00,VWS V12.07,2013-06-30 16:39:00,
2013-06-30 11:40:00,73.0,43.8,29.95,East,82,1.0,5.0,35,0.00,,CLR,0.00,VWS V12.07,2013-06-30 16:40:00,
2013-06-30 11:42:00,73.2,43.9,29.95,NNE,28,0.0,5.0,35,0.00,,CLR,0.00,VWS V12.07,2013-06-30 16:42:00,
2013-06-30 11:44:00,73.2,43.2,29.95,NE,56,3.0,5.0,34,0.00,,CLR,0.00,VWS V12.07,2013-06-30 16:44:00,
2013-06-30 11:46:00,73.5,44.2,29.95,NE,51,3.0,5.0,35,0.00,,CLR,0.00,VWS V12.07,2013-06-30 16:46:00,
2013-06-30 11:47:00,73.5,42.7,29.95,NE,52,2.0,5.0,33,0.00,,CLR,0.00,VWS V12.07,2013-06-30 16:47:00,
2013-06-30 11:49:00,73.5,44.2,29.95,West,266,2.0,5.0,35,0.00,,CLR,0.00,VWS V12.07,2013-06-30 16:49:00,
2013-06-30 11:50:00,73.5,44.2,29.95,SW,234,0.0,5.0,35,0.00,,CLR,0.00,VWS V12.07,2013-06-30 16:50:00,
2013-06-30 11:52:00,73.5,43.4,29.95,NE,44,0.0,5.0,34,0.00,,CLR,0.00,VWS V12.07,2013-06-30 16:52:00,
2013-06-30 11:54:00,73.5,41.0,29.95,NE,43,1.0,5.0,31,0.00,,CLR,0.00,VWS V12.07,2013-06-30 16:54:00,
2013-06-30 11:55:00,73.5,41.0,29.95,NE,36,0.0,4.0,31,0.00,,CLR,0.00,VWS V12.07,2013-06-30 16:55:00,
2013-06-30 11:57:00,73.3,43.3,29.95,West,264,0.0,6.0,34,0.00,,CLR,0.00,VWS V12.07,2013-06-30 16:57:00,
2013-06-30 11:58:00,73.2,43.2,29.96,West,264,0.0,6.0,34,0.00,,CLR,0.00,VWS V12.07,2013-06-30 16:58:00,
2013-06-30 12:00:00,73.2,46.1,29.96,West,264,0.0,6.0,38,0.00,,CLR,0.00,VWS V12.07,2013-06-30 17:00:00,
2013-06-30 12:03:00,73.2,43.2,29.96,ENE,59,0.0,6.0,34,0.00,,CLR,0.00,VWS V12.07,2013-06-30 17:03:00,
2013-06-30 12:04:00,73.3,44.0,29.96,ENE,59,1.0,6.0,35,0.00,,CLR,0.00,VWS V12.07,2013-06-30 17:04:00,
2013-06-30 12:05:00,73.5,46.4,29.96,ENE,59,0.0,2.0,38,0.00,,CLR,0.00,VWS V12.07,2013-06-30 17:05:00,
2013-06-30 12:08:00,73.9,44.5,29.96,West,278,1.0,5.0,35,0.00,,CLR,0.00,VWS V12.07,2013-06-30 17:08:00,
2013-06-30 12:09:00,74.0,42.3,29.96,NE,35,2.0,5.0,32,0.00,,CLR,0.00,VWS V12.07,2013-06-30 17:09:00,
2013-06-30 12:10:00,74.0,43.9,29.96,North,351,1.0,8.0,34,0.00,,CLR,0.00,VWS V12.07,2013-06-30 17:10:00,
2013-06-30 12:11:00,74.0,43.9,29.96,NNE,28,5.0,8.0,34,0.00,,CLR,0.00,VWS V12.07,2013-06-30 17:11:00,
2013-06-30 12:14:00,74.0,43.1,29.96,NNE,31,0.0,8.0,33,0.00,,CLR,0.00,VWS V12.07,2013-06-30 17:14:00,
2013-06-30 12:15:00,74.0,42.3,29.96,East,100,0.0,3.0,32,0.00,,CLR,0.00,VWS V12.07,2013-06-30 17:15:00,
2013-06-30 12:17:00,74.2,43.3,29.96,NNW,342,0.0,3.0,33,0.00,,CLR,0.00,VWS V12.07,2013-06-30 17:17:00,
2013-06-30 12:19:00,74.4,44.2,29.96,NW,315,0.0,3.0,34,0.00,,CLR,0.00,VWS V12.07,2013-06-30 17:19:00,
2013-06-30 12:20:00,74.6,45.2,29.96,WSW,241,2.0,3.0,35,0.00,,CLR,0.00,VWS V12.07,2013-06-30 17:20:00,
2013-06-30 12:22:00,74.4,42.7,29.96,West,266,1.0,12.0,32,0.00,,CLR,0.00,VWS V12.07,2013-06-30 17:22:00,
2013-06-30 12:24:00,74.4,42.7,29.96,North,4,0.0,12.0,32,0.00,,CLR,0.00,VWS V12.07,2013-06-30 17:24:00,
2013-06-30 12:25:00,74.4,42.7,29.96,North,0,5.0,5.0,32,0.00,,CLR,0.00,VWS V12.07,2013-06-30 17:25:00,
2013-06-30 12:26:00,74.4,43.5,29.96,WNW,282,1.0,5.0,33,0.00,,CLR,0.00,VWS V12.07,2013-06-30 17:26:00,
2013-06-30 12:27:00,74.4,43.5,29.96,WNW,282,0.0,5.0,33,0.00,,CLR,0.00,VWS V12.07,2013-06-30 17:27:00,
2013-06-30 12:29:00,74.4,43.5,29.95,NNE,31,3.0,5.0,33,0.00,,CLR,0.00,VWS V12.07,2013-06-30 17:29:00,
2013-06-30 12:30:00,74.4,41.8,29.95,North,358,3.0,5.0,31,0.00,,CLR,0.00,VWS V12.07,2013-06-30 17:30:00,
2013-06-30 12:31:00,74.2,41.7,29.95,North,358,3.0,5.0,31,0.00,,CLR,0.00,VWS V12.07,2013-06-30 17:31:00,
2013-06-30 12:32:00,74.2,42.5,29.95,West,262,2.0,6.0,32,0.00,,CLR,0.00,VWS V12.07,2013-06-30 17:32:00,
2013-06-30 12:35:00,74.0,42.3,29.95,NE,39,2.0,3.0,32,0.00,,CLR,0.00,VWS V12.07,2013-06-30 17:35:00,
2013-06-30 12:36:00,74.0,42.3,29.95,NE,38,1.0,3.0,32,0.00,,CLR,0.00,VWS V12.07,2013-06-30 17:36:00,
2013-06-30 12:37:00,74.0,41.5,29.95,NE,38,0.0,3.0,31,0.00,,CLR,0.00,VWS V12.07,2013-06-30 17:37:00,
2013-06-30 12:38:00,73.9,41.4,29.95,West,271,0.0,4.0,31,0.00,,CLR,0.00,VWS V12.07,2013-06-30 17:38:00,
2013-06-30 12:40:00,74.0,43.1,29.95,NNE,25,3.0,6.0,33,0.00,,CLR,0.00,VWS V12.07,2013-06-30 17:40:00,
2013-06-30 12:41:00,73.9,41.4,29.95,North,4,1.0,6.0,31,0.00,,CLR,0.00,VWS V12.07,2013-06-30 17:41:00,
2013-06-30 12:42:00,73.9,41.4,29.95,North,4,0.0,6.0,31,0.00,,CLR,0.00,VWS V12.07,2013-06-30 17:42:00,
2013-06-30 12:43:00,74.0,42.3,29.95,WNW,291,2.0,8.0,32,0.00,,CLR,0.00,VWS V12.07,2013-06-30 17:43:00,
2013-06-30 12:45:00,73.9,41.4,29.95,North,0,1.0,0.0,31,0.00,,CLR,0.00,VWS V12.07,2013-06-30 17:45:00,
2013-06-30 12:47:00,74.0,43.1,29.95,East,100,1.0,9.0,33,0.00,,CLR,0.00,VWS V12.07,2013-06-30 17:47:00,
2013-06-30 12:48:00,74.2,44.1,29.95,NE,55,2.0,9.0,34,0.00,,CLR,0.00,VWS V12.07,2013-06-30 17:48:00,
2013-06-30 12:50:00,74.6,44.4,29.95,NE,56,0.0,9.0,34,0.00,,CLR,0.00,VWS V12.07,2013-06-30 17:50:00,
2013-06-30 12:51:00,74.6,45.2,29.95,NE,56,0.0,9.0,35,0.00,,CLR,0.00,VWS V12.07,2013-06-30 17:51:00,
2013-06-30 12:52:00,74.7,47.4,29.95,North,358,5.0,9.0,38,0.00,,CLR,0.00,VWS V12.07,2013-06-30 17:52:00,
2013-06-30 12:53:00,74.9,46.2,29.95,NNW,341,0.0,9.0,36,0.00,,CLR,0.00,VWS V12.07,2013-06-30 17:53:00,
2013-06-30 12:54:00,74.9,43.9,29.95,North,354,1.0,9.0,33,0.00,,CLR,0.00,VWS V12.07,2013-06-30 17:54:00,
2013-06-30 12:55:00,74.9,43.9,29.95,East,84,3.0,5.0,33,0.00,,CLR,0.00,VWS V12.07,2013-06-30 17:55:00,
2013-06-30 12:56:00,74.9,43.1,29.95,SW,215,2.0,5.0,32,0.00,,CLR,0.00,VWS V12.07,2013-06-30 17:56:00,
2013-06-30 12:58:00,75.1,44.8,29.95,SSE,155,1.0,5.0,34,0.00,,CLR,0.00,VWS V12.07,2013-06-30 17:58:00,
2013-06-30 13:00:00,75.1,44.8,29.95,North,358,1.0,5.0,34,0.00,,CLR,0.00,VWS V12.07,2013-06-30 18:00:00,
2013-06-30 13:01:00,75.3,45.0,29.95,North,0,6.0,8.0,34,0.00,,CLR,0.00,VWS V12.07,2013-06-30 18:01:00,
2013-06-30 13:03:00,75.3,44.2,29.95,NNE,15,2.0,9.0,33,0.00,,CLR,0.00,VWS V12.07,2013-06-30 18:03:00,
2013-06-30 13:04:00,75.3,44.2,29.95,NNE,15,2.0,9.0,33,0.00,,CLR,0.00,VWS V12.07,2013-06-30 18:04:00,
2013-06-30 13:05:00,75.3,43.4,29.95,North,358,3.0,4.0,32,0.00,,CLR,0.00,VWS V12.07,2013-06-30 18:05:00,
2013-06-30 13:06:00,75.3,44.2,29.95,NW,323,2.0,4.0,33,0.00,,CLR,0.00,VWS V12.07,2013-06-30 18:06:00,
2013-06-30 13:09:00,75.4,45.1,29.95,East,82,0.0,4.0,34,0.00,,CLR,0.00,VWS V12.07,2013-06-30 18:09:00,
2013-06-30 13:10:00,75.6,45.3,29.95,East,82,0.0,4.0,34,0.00,,CLR,0.00,VWS V12.07,2013-06-30 18:10:00,
2013-06-30 13:11:00,75.6,46.0,29.95,NNW,338,1.0,4.0,35,0.00,,CLR,0.00,VWS V12.07,2013-06-30 18:11:00,
2013-06-30 13:12:00,75.6,46.0,29.95,ENE,61,1.0,4.0,35,0.00,,CLR,0.00,VWS V12.07,2013-06-30 18:12:00,
2013-06-30 13:14:00,75.8,45.5,29.95,NNW,343,1.0,4.0,34,0.00,,CLR,0.00,VWS V12.07,2013-06-30 18:14:00,
2013-06-30 13:15:00,75.8,45.5,29.95,North,1,3.0,5.0,34,0.00,,CLR,0.00,VWS V12.07,2013-06-30 18:15:00,
2013-06-30 13:16:00,75.8,46.2,29.95,NE,49,1.0,5.0,35,0.00,,CLR,0.00,VWS V12.07,2013-06-30 18:16:00,
2013-06-30 13:17:00,75.8,45.5,29.95,NE,49,0.0,5.0,34,0.00,,CLR,0.00,VWS V12.07,2013-06-30 18:17:00,
2013-06-30 13:19:00,75.8,46.2,29.95,NE,49,0.0,5.0,35,0.00,,CLR,0.00,VWS V12.07,2013-06-30 18:19:00,
2013-06-30 13:20:00,75.6,46.8,29.95,NE,37,3.0,5.0,36,0.00,,CLR,0.00,VWS V12.07,2013-06-30 18:20:00,
2013-06-30 13:22:00,75.6,46.0,29.95,NNE,22,0.0,5.0,35,0.00,,CLR,0.00,VWS V12.07,2013-06-30 18:22:00,
2013-06-30 13:24:00,75.6,44.5,29.95,NNE,23,0.0,5.0,33,0.00,,CLR,0.00,VWS V12.07,2013-06-30 18:24:00,
2013-06-30 13:26:00,75.6,46.0,29.95,NNE,14,4.0,4.0,35,0.00,,CLR,0.00,VWS V12.07,2013-06-30 18:26:00,
2013-06-30 13:27:00,75.4,45.1,29.95,NE,53,3.0,6.0,34,0.00,,CLR,0.00,VWS V12.07,2013-06-30 18:27:00,
2013-06-30 13:28:00,75.4,44.3,29.95,SE,146,0.0,6.0,33,0.00,,CLR,0.00,VWS V12.07,2013-06-30 18:28:00,
2013-06-30 13:29:00,75.4,44.3,29.95,NNW,347,0.0,6.0,33,0.00,,CLR,0.00,VWS V12.07,2013-06-30 18:29:00,
2013-06-30 13:31:00,75.4,45.9,29.95,NNW,348,2.0,6.0,35,0.00,,CLR,0.00,VWS V12.07,2013-06-30 18:31:00,
2013-06-30 13:32:00,75.8,46.2,29.95,ESE,123,0.0,6.0,35,0.00,,CLR,0.00,VWS V12.07,2013-06-30 18:32:00,
2013-06-30 13:33:00,75.8,47.7,29.95,ESE,123,0.0,6.0,37,0.00,,CLR,0.00,VWS V12.07,2013-06-30 18:33:00,
2013-06-30 13:34:00,76.0,47.9,29.95,ESE,123,1.0,6.0,37,0.00,,CLR,0.00,VWS V12.07,2013-06-30 18:34:00,
2013-06-30 13:36:00,76.1,46.5,29.95,NNE,24,4.0,5.0,35,0.00,,CLR,0.00,VWS V12.07,2013-06-30 18:36:00,
2013-06-30 13:37:00,76.3,46.7,29.95,ENE,61,0.0,5.0,35,0.00,,CLR,0.00,VWS V12.07,2013-06-30 18:37:00,
2013-06-30 13:38:00,76.3,48.1,29.95,ENE,61,1.0,5.0,37,0.00,,CLR,0.00,VWS V12.07,2013-06-30 18:38:00,
2013-06-30 13:40:00,76.5,50.4,29.95,NE,35,0.0,5.0,40,0.00,,CLR,0.00,VWS V12.07,2013-06-30 18:40:00,
2013-06-30 13:41:00,76.5,44.5,29.95,NNE,22,1.0,5.0,32,0.00,,CLR,0.00,VWS V12.07,2013-06-30 18:41:00,
2013-06-30 13:43:00,76.5,46.1,29.95,NNE,15,2.0,5.0,34,0.00,,CLR,0.00,VWS V12.07,2013-06-30 18:43:00,
2013-06-30 13:44:00,76.5,46.8,29.95,WNW,302,1.0,5.0,35,0.00,,CLR,0.00,VWS V12.07,2013-06-30 18:44:00,
2013-06-30 13:45:00,76.5,46.8,29.95,ENE,65,1.0,4.0,35,0.00,,CLR,0.00,VWS V12.07,2013-06-30 18:45:00,
2013-06-30 13:46:00,76.5,46.8,29.95,ENE,65,0.0,4.0,35,0.00,,CLR,0.00,VWS V12.07,2013-06-30 18:46:00,
2013-06-30 13:48:00,76.3,46.7,29.95,NNE,29,0.0,4.0,35,0.00,,CLR,0.00,VWS V12.07,2013-06-30 18:48:00,
2013-06-30 13:49:00,76.3,46.7,29.95,NNE,21,2.0,5.0,35,0.00,,CLR,0.00,VWS V12.07,2013-06-30 18:49:00,
2013-06-30 13:50:00,76.1,48.0,29.95,NNE,21,0.0,5.0,37,0.00,,CLR,0.00,VWS V12.07,2013-06-30 18:50:00,
2013-06-30 13:51:00,76.1,48.7,29.95,NNE,21,2.0,5.0,38,0.00,,CLR,0.00,VWS V12.07,2013-06-30 18:51:00,
2013-06-30 13:53:00,76.0,47.9,29.95,NNW,331,0.0,5.0,37,0.00,,CLR,0.00,VWS V12.07,2013-06-30 18:53:00,
2013-06-30 13:55:00,75.8,47.7,29.95,NNW,331,0.0,2.0,37,0.00,,CLR,0.00,VWS V12.07,2013-06-30 18:55:00,
2013-06-30 13:56:00,75.8,46.2,29.95,North,10,0.0,2.0,35,0.00,,CLR,0.00,VWS V12.07,2013-06-30 18:56:00,
2013-06-30 13:58:00,76.0,47.9,29.95,NE,46,2.0,5.0,37,0.00,,CLR,0.00,VWS V12.07,2013-06-30 18:58:00,
2013-06-30 13:59:00,76.0,47.9,29.95,NW,321,0.0,5.0,37,0.00,,CLR,0.00,VWS V12.07,2013-06-30 18:59:00,
2013-06-30 14:00:00,76.0,46.4,29.95,NE,44,1.0,5.0,35,0.00,,CLR,0.00,VWS V12.07,2013-06-30 19:00:00,
2013-06-30 14:01:00,76.0,46.4,29.95,WNW,294,3.0,5.0,35,0.00,,CLR,0.00,VWS V12.07,2013-06-30 19:01:00,
2013-06-30 14:03:00,76.0,45.6,29.95,NNE,23,0.0,5.0,34,0.00,,CLR,0.00,VWS V12.07,2013-06-30 19:03:00,
2013-06-30 14:04:00,76.0,45.6,29.95,NNE,19,1.0,5.0,34,0.00,,CLR,0.00,VWS V12.07,2013-06-30 19:04:00,
2013-06-30 14:05:00,76.0,45.6,29.95,ENE,63,0.0,2.0,34,0.00,,CLR,0.00,VWS V12.07,2013-06-30 19:05:00,
2013-06-30 14:06:00,76.0,47.9,29.95,ENE,63,0.0,2.0,37,0.00,,CLR,0.00,VWS V12.07,2013-06-30 19:06:00,
2013-06-30 14:08:00,76.0,50.0,29.95,North,5,3.0,4.0,40,0.00,,CLR,0.00,VWS V12.07,2013-06-30 19:08:00,
2013-06-30 14:09:00,75.8,47.0,29.95,WNW,298,0.0,4.0,36,0.00,,CLR,0.00,VWS V12.07,2013-06-30 19:09:00,
2013-06-30 14:10:00,75.8,49.1,29.95,WNW,298,1.0,4.0,39,0.00,,CLR,0.00,VWS V12.07,2013-06-30 19:10:00,
2013-06-30 14:12:00,75.6,47.5,29.95,WNW,298,0.0,4.0,37,0.00,,CLR,0.00,VWS V12.07,2013-06-30 19:12:00,
2013-06-30 14:13:00,75.6,47.5,29.95,WNW,298,1.0,4.0,37,0.00,,CLR,0.00,VWS V12.07,2013-06-30 19:13:00,
2013-06-30 14:15:00,75.6,48.2,29.95,WNW,298,0.0,4.0,38,0.00,,CLR,0.00,VWS V12.07,2013-06-30 19:15:00,
2013-06-30 14:16:00,75.6,50.9,29.95,NNE,18,2.0,3.0,42,0.00,,CLR,0.00,VWS V12.07,2013-06-30 19:16:00,
2013-06-30 14:17:00,75.6,47.5,29.95,NNE,16,0.0,3.0,37,0.00,,CLR,0.00,VWS V12.07,2013-06-30 19:17:00,
2013-06-30 14:19:00,75.6,45.3,29.95,ESE,113,3.0,8.0,34,0.00,,CLR,0.00,VWS V12.07,2013-06-30 19:19:00,
2013-06-30 14:20:00,75.6,46.0,29.95,ENE,73,0.0,8.0,35,0.00,,CLR,0.00,VWS V12.07,2013-06-30 19:20:00,
2013-06-30 14:21:00,75.6,46.8,29.95,ENE,72,0.0,8.0,36,0.00,,CLR,0.00,VWS V12.07,2013-06-30 19:21:00,
2013-06-30 14:22:00,75.6,46.8,29.95,NNW,333,1.0,8.0,36,0.00,,CLR,0.00,VWS V12.07,2013-06-30 19:22:00,
2013-06-30 14:24:00,75.6,46.8,29.95,NNW,333,1.0,8.0,36,0.00,,CLR,0.00,VWS V12.07,2013-06-30 19:24:00,
2013-06-30 14:25:00,75.6,46.0,29.95,North,354,0.0,4.0,35,0.00,,CLR,0.00,VWS V12.07,2013-06-30 19:25:00,
2013-06-30 14:26:00,75.6,46.8,29.95,North,354,0.0,4.0,36,0.00,,CLR,0.00,VWS V12.07,2013-06-30 19:26:00,
2013-06-30 14:27:00,75.6,46.0,29.95,NE,49,0.0,4.0,35,0.00,,CLR,0.00,VWS V12.07,2013-06-30 19:27:00,
2013-06-30 14:29:00,75.4,48.8,29.96,NE,49,1.0,4.0,39,0.00,,CLR,0.00,VWS V12.07,2013-06-30 19:29:00,
2013-06-30 14:30:00,75.4,48.8,29.96,North,356,0.0,4.0,39,0.00,,CLR,0.00,VWS V12.07,2013-06-30 19:30:00,
2013-06-30 14:31:00,75.3,48.0,29.96,North,356,0.0,4.0,38,0.00,,CLR,0.00,VWS V12.07,2013-06-30 19:31:00,
2013-06-30 14:33:00,75.3,48.0,29.96,North,7,3.0,4.0,38,0.00,,CLR,0.00,VWS V12.07,2013-06-30 19:33:00,
2013-06-30 14:34:00,75.3,48.0,29.96,East,94,0.0,2.0,38,0.00,,CLR,0.00,VWS V12.07,2013-06-30 19:34:00,
2013-06-30 14:35:00,75.3,48.0,29.96,East,94,0.0,2.0,38,0.00,,CLR,0.00,VWS V12.07,2013-06-30 19:35:00,
2013-06-30 14:36:00,75.3,47.3,29.96,ENE,62,2.0,4.0,37,0.00,,CLR,0.00,VWS V12.07,2013-06-30 19:36:00,
2013-06-30 14:38:00,75.4,48.0,29.96,NE,41,0.0,4.0,38,0.00,,CLR,0.00,VWS V12.07,2013-06-30 19:38:00,
2013-06-30 14:40:00,75.6,48.9,29.96,NNE,30,4.0,6.0,39,0.00,,CLR,0.00,VWS V12.07,2013-06-30 19:40:00,
2013-06-30 14:41:00,75.6,48.2,29.96,NNE,27,4.0,6.0,38,0.00,,CLR,0.00,VWS V12.07,2013-06-30 19:41:00,
2013-06-30 14:43:00,75.8,50.5,29.95,North,358,3.0,6.0,41,0.00,,CLR,0.00,VWS V12.07,2013-06-30 19:43:00,
2013-06-30 14:45:00,75.8,49.1,29.95,North,358,0.0,6.0,39,0.00,,CLR,0.00,VWS V12.07,2013-06-30 19:45:00,
2013-06-30 14:46:00,75.8,49.8,29.95,North,358,1.0,2.0,40,0.00,,CLR,0.00,VWS V12.07,2013-06-30 19:46:00,
2013-06-30 14:49:00,75.6,47.5,29.95,NE,53,1.0,4.0,37,0.00,,CLR,0.00,VWS V12.07,2013-06-30 19:49:00,
2013-06-30 14:50:00,75.6,48.2,29.95,NNW,333,0.0,4.0,38,0.00,,CLR,0.00,VWS V12.07,2013-06-30 19:50:00,
2013-06-30 14:51:00,75.6,48.9,29.95,NNE,30,5.0,7.0,39,0.00,,CLR,0.00,VWS V12.07,2013-06-30 19:51:00,
2013-06-30 14:55:00,75.4,47.3,29.95,NNW,339,0.0,2.0,37,0.00,,CLR,0.00,VWS V12.07,2013-06-30 19:55:00,
2013-06-30 14:56:00,75.4,48.0,29.95,NNE,29,5.0,5.0,38,0.00,,CLR,0.00,VWS V12.07,2013-06-30 19:56:00,
2013-06-30 14:57:00,75.4,46.6,29.95,NNE,29,2.0,6.0,36,0.00,,CLR,0.00,VWS V12.07,2013-06-30 19:57:00,
2013-06-30 15:00:00,75.3,48.7,29.96,NNW,335,1.0,6.0,39,0.00,,CLR,0.00,VWS V12.07,2013-06-30 20:00:00,
2013-06-30 15:01:00,75.3,47.3,29.96,NE,47,1.0,6.0,37,0.00,,CLR,0.00,VWS V12.07,2013-06-30 20:01:00,
2013-06-30 15:02:00,75.3,48.0,29.96,NE,47,0.0,6.0,38,0.00,,CLR,0.00,VWS V12.07,2013-06-30 20:02:00,
2013-06-30 15:05:00,75.3,48.0,29.96,NNE,16,4.0,4.0,38,0.00,,CLR,0.00,VWS V12.07,2013-06-30 20:05:00,
2013-06-30 15:06:00,75.3,48.7,29.96,NNE,22,2.0,4.0,39,0.00,,CLR,0.00,VWS V12.07,2013-06-30 20:06:00,
2013-06-30 15:07:00,75.4,47.3,29.96,WNW,294,3.0,5.0,37,0.00,,CLR,0.00,VWS V12.07,2013-06-30 20:07:00,
2013-06-30 15:08:00,75.6,48.2,29.96,North,357,4.0,6.0,38,0.00,,CLR,0.00,VWS V12.07,2013-06-30 20:08:00,
2013-06-30 15:10:00,75.6,47.5,29.96,NNE,12,3.0,6.0,37,0.00,,CLR,0.00,VWS V12.07,2013-06-30 20:10:00,
2013-06-30 15:11:00,75.6,47.5,29.96,North,1,1.0,6.0,37,0.00,,CLR,0.00,VWS V12.07,2013-06-30 20:11:00,
2013-06-30 15:12:00,75.8,47.7,29.96,WSW,242,3.0,6.0,37,0.00,,CLR,0.00,VWS V12.07,2013-06-30 20:12:00,
2013-06-30 15:14:00,75.8,46.2,29.96,ENE,60,0.0,6.0,35,0.00,,CLR,0.00,VWS V12.07,2013-06-30 20:14:00,
2013-06-30 15:16:00,75.8,48.4,29.96,NNW,334,2.0,11.0,38,0.00,,CLR,0.00,VWS V12.07,2013-06-30 20:16:00,
2013-06-30 15:17:00,75.8,47.0,29.96,ENE,61,2.0,11.0,36,0.00,,CLR,0.00,VWS V12.07,2013-06-30 20:17:00,
2013-06-30 15:20:00,75.8,46.2,29.96,NNE,13,1.0,11.0,35,0.00,,CLR,0.00,VWS V12.07,2013-06-30 20:20:00,
2013-06-30 15:21:00,75.8,46.2,29.96,West,272,1.0,11.0,35,0.00,,CLR,0.00,VWS V12.07,2013-06-30 20:21:00,
2013-06-30 15:22:00,75.8,46.2,29.96,NNE,29,5.0,11.0,35,0.00,,CLR,0.00,VWS V12.07,2013-06-30 20:22:00,
2013-06-30 15:25:00,75.4,46.6,29.96,North,0,3.0,7.0,36,0.00,,CLR,0.00,VWS V12.07,2013-06-30 20:25:00,
2013-06-30 15:27:00,75.3,47.3,29.96,NNE,23,0.0,7.0,37,0.00,,CLR,0.00,VWS V12.07,2013-06-30 20:27:00,
2013-06-30 15:28:00,75.3,48.0,29.96,NNE,23,0.0,7.0,38,0.00,,CLR,0.00,VWS V12.07,2013-06-30 20:28:00,
2013-06-30 15:30:00,75.1,47.8,29.96,SW,233,0.0,7.0,38,0.00,,CLR,0.00,VWS V12.07,2013-06-30 20:30:00,
2013-06-30 15:32:00,75.1,47.1,29.96,ENE,77,0.0,7.0,37,0.00,,CLR,0.00,VWS V12.07,2013-06-30 20:32:00,
2013-06-30 15:33:00,75.1,47.1,29.96,ENE,77,2.0,7.0,37,0.00,,CLR,0.00,VWS V12.07,2013-06-30 20:33:00,
2013-06-30 15:36:00,75.3,48.7,29.96,NNE,32,1.0,3.0,39,0.00,,SCT075,0.00,VWS V12.07,2013-06-30 20:36:00,
2013-06-30 15:37:00,75.3,47.3,29.96,NW,323,3.0,3.0,37,0.00,,SCT075,0.00,VWS V12.07,2013-06-30 20:37:00,
2013-06-30 15:38:00,75.3,50.0,29.96,North,0,3.0,11.0,41,0.00,,SCT075,0.00,VWS V12.07,2013-06-30 20:38:00,
2013-06-30 15:39:00,75.3,50.0,29.96,NNE,29,2.0,11.0,41,0.00,,SCT075,0.00,VWS V12.07,2013-06-30 20:39:00,
2013-06-30 15:41:00,75.3,48.0,29.96,NNW,335,0.0,11.0,38,0.00,,SCT075,0.00,VWS V12.07,2013-06-30 20:41:00,
2013-06-30 15:42:00,75.1,47.8,29.96,NE,51,6.0,11.0,38,0.00,,SCT075,0.00,VWS V12.07,2013-06-30 20:42:00,
2013-06-30 15:44:00,74.9,48.3,29.96,NW,307,2.0,11.0,39,0.00,,SCT075,0.00,VWS V12.07,2013-06-30 20:44:00,
2013-06-30 15:47:00,74.7,47.4,29.96,NNE,19,1.0,6.0,38,0.00,,SCT075,0.00,VWS V12.07,2013-06-30 20:47:00,
2013-06-30 15:49:00,74.6,48.0,29.96,North,10,1.0,6.0,39,0.00,,CLR,0.00,VWS V12.07,2013-06-30 20:49:00,
2013-06-30 15:52:00,74.6,45.9,29.96,ENE,73,1.0,6.0,36,0.00,,CLR,0.00,VWS V12.07,2013-06-30 20:52:00,
2013-06-30 15:53:00,74.6,48.0,29.96,ENE,73,0.0,6.0,39,0.00,,CLR,0.00,VWS V12.07,2013-06-30 20:53:00,
2013-06-30 15:54:00,74.6,47.3,29.96,ENE,73,1.0,6.0,38,0.00,,CLR,0.00,VWS V12.07,2013-06-30 20:54:00,
2013-06-30 15:55:00,74.6,47.3,29.96,ENE,73,0.0,6.0,38,0.00,,CLR,0.00,VWS V12.07,2013-06-30 20:55:00,
2013-06-30 15:58:00,74.6,47.3,29.96,NNE,26,0.0,6.0,38,0.00,,SCT075,0.00,VWS V12.07,2013-06-30 20:58:00,
2013-06-30 15:59:00,74.6,48.0,29.96,NNE,27,1.0,6.0,39,0.00,,CLR,0.00,VWS V12.07,2013-06-30 20:59:00,
2013-06-30 16:00:00,74.6,47.3,29.96,NE,37,0.0,6.0,38,0.00,,CLR,0.00,VWS V12.07,2013-06-30 21:00:00,
2013-06-30 16:03:00,74.7,49.5,29.96,NE,56,1.0,6.0,41,0.00,,CLR,0.00,VWS V12.07,2013-06-30 21:03:00,
2013-06-30 16:05:00,74.9,49.6,29.96,NE,56,0.0,6.0,41,0.00,,CLR,0.00,VWS V12.07,2013-06-30 21:05:00,
2013-06-30 16:06:00,74.9,48.3,29.96,ESE,111,0.0,5.0,39,0.00,,CLR,0.00,VWS V12.07,2013-06-30 21:06:00,
2013-06-30 16:09:00,74.9,47.6,29.96,NNW,339,0.0,7.0,38,0.00,,CLR,0.00,VWS V12.07,2013-06-30 21:09:00,
2013-06-30 16:10:00,74.9,47.6,29.96,NNE,19,2.0,7.0,38,0.00,,CLR,0.00,VWS V12.07,2013-06-30 21:10:00,
2013-06-30 16:13:00,74.9,48.3,29.96,North,0,0.0,7.0,39,0.00,,CLR,0.00,VWS V12.07,2013-06-30 21:13:00,
2013-06-30 16:14:00,74.9,48.3,29.96,North,0,0.0,7.0,39,0.00,,CLR,0.00,VWS V12.07,2013-06-30 21:14:00,
2013-06-30 16:15:00,74.9,48.3,29.96,North,0,0.0,7.0,39,0.00,,CLR,0.00,VWS V12.07,2013-06-30 21:15:00,
2013-06-30 16:16:00,74.7,47.4,29.96,North,0,0.0,0.0,38,0.00,,CLR,0.00,VWS V12.07,2013-06-30 21:16:00,
2013-06-30 16:19:00,74.7,48.1,29.96,North,0,0.0,1.0,39,0.00,,CLR,0.00,VWS V12.07,2013-06-30 21:19:00,
2013-06-30 16:20:00,74.7,48.1,29.96,North,0,0.0,3.0,39,0.00,,CLR,0.00,VWS V12.07,2013-06-30 21:20:00,
2013-06-30 16:22:00,74.7,50.7,29.96,NNW,329,2.0,3.0,43,0.00,,CLR,0.00,VWS V12.07,2013-06-30 21:22:00,
2013-06-30 16:24:00,74.6,47.3,29.96,NNW,333,0.0,3.0,38,0.00,,CLR,0.00,VWS V12.07,2013-06-30 21:24:00,
2013-06-30 16:25:00,74.6,48.0,29.96,NNW,338,3.0,3.0,39,0.00,,CLR,0.00,VWS V12.07,2013-06-30 21:25:00,
2013-06-30 16:27:00,74.6,45.9,29.96,North,354,0.0,6.0,36,0.00,,CLR,0.00,VWS V12.07,2013-06-30 21:27:00,
2013-06-30 16:29:00,74.7,46.0,29.96,NNE,22,0.0,6.0,36,0.00,,CLR,0.00,VWS V12.07,2013-06-30 21:29:00,
2013-06-30 16:30:00,74.7,46.0,29.96,NNE,21,0.0,6.0,36,0.00,,CLR,0.00,VWS V12.07,2013-06-30 21:30:00,
2013-06-30 16:32:00,74.7,46.7,29.96,North,358,2.0,6.0,37,0.00,,CLR,0.00,VWS V12.07,2013-06-30 21:32:00,
2013-06-30 16:34:00,74.6,48.0,29.96,NNW,347,4.0,6.0,39,0.00,,CLR,0.00,VWS V12.07,2013-06-30 21:34:00,
2013-06-30 16:35:00,74.6,46.6,29.96,North,0,3.0,6.0,37,0.00,,CLR,0.00,VWS V12.07,2013-06-30 21:35:00,
2013-06-30 16:38:00,74.4,47.2,29.96,NE,56,2.0,10.0,38,0.00,,CLR,0.00,VWS V12.07,2013-06-30 21:38:00,
2013-06-30 16:39:00,74.2,47.0,29.96,NNE,25,1.0,10.0,38,0.00,,CLR,0.00,VWS V12.07,2013-06-30 21:39:00,
2013-06-30 16:40:00,74.2,47.7,29.96,NNE,25,0.0,10.0,39,0.00,,CLR,0.00,VWS V12.07,2013-06-30 21:40:00,
2013-06-30 16:41:00,74.2,47.7,29.96,North,354,2.0,10.0,39,0.00,,CLR,0.00,VWS V12.07,2013-06-30 21:41:00,
2013-06-30 16:43:00,74.0,48.2,29.97,NNW,338,1.0,10.0,40,0.00,,CLR,0.00,VWS V12.07,2013-06-30 21:43:00,
2013-06-30 16:45:00,73.9,46.7,29.97,NW,313,0.0,10.0,38,0.00,,CLR,0.00,VWS V12.07,2013-06-30 21:45:00,
2013-06-30 16:46:00,73.9,48.7,29.97,NW,313,0.0,5.0,41,0.00,,CLR,0.00,VWS V12.07,2013-06-30 21:46:00,
2013-06-30 16:49:00,73.9,47.4,29.97,SE,132,1.0,5.0,39,0.00,,CLR,0.00,VWS V12.07,2013-06-30 21:49:00,
2013-06-30 16:50:00,73.9,47.4,29.97,SW,230,0.0,5.0,39,0.00,,CLR,0.00,VWS V12.07,2013-06-30 21:50:00,
2013-06-30 16:51:00,73.9,48.1,29.97,SW,230,0.0,5.0,40,0.00,,CLR,0.00,VWS V12.07,2013-06-30 21:51:00,
2013-06-30 16:54:00,73.9,47.4,29.97,NNW,332,0.0,5.0,39,0.00,,CLR,0.00,VWS V12.07,2013-06-30 21:54:00,
2013-06-30 16:55:00,73.9,47.4,29.97,NE,53,2.0,3.0,39,0.00,,CLR,0.00,VWS V12.07,2013-06-30 21:55:00,
2013-06-30 16:56:00,73.9,47.4,29.97,NE,53,1.0,3.0,39,0.00,,CLR,0.00,VWS V12.07,2013-06-30 21:56:00,
2013-06-30 16:59:00,74.0,47.5,29.97,North,352,3.0,4.0,39,0.00,,CLR,0.00,VWS V12.07,2013-06-30 21:59:00,
2013-06-30 17:00:00,74.0,47.5,29.97,North,352,1.0,4.0,39,0.00,,CLR,0.00,VWS V12.07,2013-06-30 22:00:00,
2013-06-30 17:01:00,74.0,48.2,29.97,North,357,0.0,4.0,40,0.00,,CLR,0.00,VWS V12.07,2013-06-30 22:01:00,
2013-06-30 17:02:00,74.0,46.8,29.97,NE,37,3.0,7.0,38,0.00,,CLR,0.00,VWS V12.07,2013-06-30 22:02:00,
2013-06-30 17:05:00,74.0,46.1,29.97,NW,326,1.0,7.0,37,0.00,,CLR,0.00,VWS V12.07,2013-06-30 22:05:00,
2013-06-30 17:06:00,74.2,46.3,29.97,North,358,0.0,5.0,37,0.00,,CLR,0.00,VWS V12.07,2013-06-30 22:06:00,
2013-06-30 17:08:00,74.2,47.0,29.97,NE,34,3.0,5.0,38,0.00,,CLR,0.00,VWS V12.07,2013-06-30 22:08:00,
2013-06-30 17:10:00,74.2,46.3,29.97,NNE,25,5.0,5.0,37,0.00,,CLR,0.00,VWS V12.07,2013-06-30 22:10:00,
2013-06-30 17:11:00,74.2,46.3,29.97,NNE,15,2.0,5.0,37,0.00,,CLR,0.00,VWS V12.07,2013-06-30 22:11:00,
2013-06-30 17:13:00,74.2,47.0,29.97,NNE,16,1.0,5.0,38,0.00,,CLR,0.00,VWS V12.07,2013-06-30 22:13:00,
2013-06-30 17:15:00,74.2,47.0,29.97,NNE,33,0.0,2.0,38,0.00,,CLR,0.00,VWS V12.07,2013-06-30 22:15:00,
2013-06-30 17:16:00,74.2,47.7,29.97,NE,40,0.0,2.0,39,0.00,,CLR,0.00,VWS V12.07,2013-06-30 22:16:00,
2013-06-30 17:17:00,74.2,47.7,29.97,NE,40,1.0,2.0,39,0.00,,CLR,0.00,VWS V12.07,2013-06-30 22:17:00,
2013-06-30 17:18:00,74.2,47.0,29.97,North,350,0.0,3.0,38,0.00,,CLR,0.00,VWS V12.07,2013-06-30 22:18:00,
2013-06-30 17:21:00,74.2,47.0,29.97,ENE,65,0.0,3.0,38,0.00,,CLR,0.00,VWS V12.07,2013-06-30 22:21:00,
2013-06-30 17:22:00,74.2,47.0,29.97,ENE,65,1.0,3.0,38,0.00,,CLR,0.00,VWS V12.07,2013-06-30 22:22:00,
2013-06-30 17:23:00,74.2,47.7,29.97,ENE,65,0.0,3.0,39,0.00,,CLR,0.00,VWS V12.07,2013-06-30 22:23:00,
2013-06-30 17:26:00,74.2,49.7,29.97,ENE,65,0.0,1.0,42,0.00,,CLR,0.00,VWS V12.07,2013-06-30 22:26:00,
2013-06-30 17:27:00,74.0,49.5,29.97,ENE,65,1.0,1.0,42,0.00,,CLR,0.00,VWS V12.07,2013-06-30 22:27:00,
2013-06-30 17:28:00,74.0,49.5,29.96,ENE,65,0.0,1.0,42,0.00,,CLR,0.00,VWS V12.07,2013-06-30 22:28:00,
2013-06-30 17:31:00,73.9,50.0,29.96,ENE,65,1.0,2.0,43,0.00,,CLR,0.00,VWS V12.07,2013-06-30 22:31:00,
2013-06-30 17:32:00,73.9,50.0,29.96,NE,40,2.0,3.0,43,0.00,,CLR,0.00,VWS V12.07,2013-06-30 22:32:00,
2013-06-30 17:33:00,73.9,50.0,29.96,NNE,26,0.0,3.0,43,0.00,,CLR,0.00,VWS V12.07,2013-06-30 22:33:00,
2013-06-30 17:37:00,73.7,47.2,29.96,North,11,0.0,5.0,39,0.00,,CLR,0.00,VWS V12.07,2013-06-30 22:37:00,
2013-06-30 17:38:00,73.7,47.9,29.96,North,11,0.0,5.0,40,0.00,,CLR,0.00,VWS V12.07,2013-06-30 22:38:00,
2013-06-30 17:39:00,73.7,48.6,29.96,North,11,0.0,5.0,41,0.00,,CLR,0.00,VWS V12.07,2013-06-30 22:39:00,
2013-06-30 17:43:00,73.7,47.2,29.96,North,10,0.0,5.0,39,0.00,,CLR,0.00,VWS V12.07,2013-06-30 22:43:00,
2013-06-30 17:44:00,73.5,47.7,29.97,WNW,302,1.0,5.0,40,0.00,,CLR,0.00,VWS V12.07,2013-06-30 22:44:00,
2013-06-30 17:48:00,73.5,46.4,29.97,North,358,0.0,4.0,38,0.00,,CLR,0.00,VWS V12.07,2013-06-30 22:48:00,
2013-06-30 17:49:00,73.5,46.4,29.97,North,358,0.0,4.0,38,0.00,,CLR,0.00,VWS V12.07,2013-06-30 22:49:00,
2013-06-30 17:53:00,73.5,47.7,29.97,NE,56,1.0,4.0,40,0.00,,CLR,0.00,VWS V12.07,2013-06-30 22:53:00,
2013-06-30 17:54:00,73.5,47.7,29.97,NE,56,0.0,4.0,40,0.00,,CLR,0.00,VWS V12.07,2013-06-30 22:54:00,
2013-06-30 17:55:00,73.5,49.0,29.97,NE,56,0.0,2.0,42,0.00,,CLR,0.00,VWS V12.07,2013-06-30 22:55:00,
2013-06-30 17:58:00,73.3,48.8,29.96,NE,46,0.0,4.0,42,0.00,,CLR,0.00,VWS V12.07,2013-06-30 22:58:00,
2013-06-30 17:59:00,73.3,47.5,29.96,NE,46,0.0,4.0,40,0.00,,CLR,0.00,VWS V12.07,2013-06-30 22:59:00,
2013-06-30 18:00:00,73.3,48.8,29.96,NE,46,0.0,4.0,42,0.00,,CLR,0.00,VWS V12.07,2013-06-30 23:00:00,
2013-06-30 18:03:00,73.2,47.5,29.96,North,349,2.0,4.0,40,0.00,,CLR,0.00,VWS V12.07,2013-06-30 23:03:00,
2013-06-30 18:04:00,73.2,48.1,29.96,North,349,0.0,4.0,41,0.00,,CLR,0.00,VWS V12.07,2013-06-30 23:04:00,
2013-06-30 18:05:00,73.2,48.1,29.96,North,349,0.0,0.0,41,0.00,,CLR,0.00,VWS V12.07,2013-06-30 23:05:00,
2013-06-30 18:06:00,73.2,46.8,29.96,North,349,0.0,1.0,39,0.00,,CLR,0.00,VWS V12.07,2013-06-30 23:06:00,
2013-06-30 18:08:00,73.2,47.5,29.96,NE,39,0.0,4.0,40,0.00,,CLR,0.00,VWS V12.07,2013-06-30 23:08:00,
2013-06-30 18:10:00,73.2,47.5,29.96,NW,316,1.0,4.0,40,0.00,,CLR,0.00,VWS V12.07,2013-06-30 23:10:00,
2013-06-30 18:11:00,73.2,46.1,29.96,NNE,18,2.0,5.0,38,0.00,,CLR,0.00,VWS V12.07,2013-06-30 23:11:00,
2013-06-30 18:14:00,73.2,46.8,29.97,NW,326,0.0,5.0,39,0.00,,CLR,0.00,VWS V12.07,2013-06-30 23:14:00,
2013-06-30 18:15:00,73.2,46.1,29.97,North,353,0.0,4.0,38,0.00,,CLR,0.00,VWS V12.07,2013-06-30 23:15:00,
2013-06-30 18:16:00,73.2,47.5,29.97,North,353,0.0,4.0,40,0.00,,CLR,0.00,VWS V12.07,2013-06-30 23:16:00,
2013-06-30 18:19:00,73.2,46.1,29.97,NE,44,2.0,4.0,38,0.00,,CLR,0.00,VWS V12.07,2013-06-30 23:19:00,
2013-06-30 18:21:00,73.2,46.8,29.97,North,5,0.0,4.0,39,0.00,,CLR,0.00,VWS V12.07,2013-06-30 23:21:00,
2013-06-30 18:23:00,73.2,46.8,29.97,North,7,0.0,4.0,39,0.00,,CLR,0.00,VWS V12.07,2013-06-30 23:23:00,
2013-06-30 18:24:00,73.2,46.8,29.97,North,7,0.0,4.0,39,0.00,,CLR,0.00,VWS V12.07,2013-06-30 23:24:00,
2013-06-30 18:26:00,73.0,46.6,29.97,NNE,17,0.0,2.0,39,0.00,,CLR,0.00,VWS V12.07,2013-06-30 23:26:00,
2013-06-30 18:28:00,73.0,46.6,29.98,NNE,18,1.0,2.0,39,0.00,,CLR,0.00,VWS V12.07,2013-06-30 23:28:00,
2013-06-30 18:29:00,73.0,45.2,29.98,North,358,1.0,2.0,37,0.00,,CLR,0.00,VWS V12.07,2013-06-30 23:29:00,
2013-06-30 18:31:00,73.0,46.6,29.98,NNW,340,0.0,3.0,39,0.00,,CLR,0.00,VWS V12.07,2013-06-30 23:31:00,
2013-06-30 18:32:00,73.0,45.9,29.98,NNW,340,0.0,3.0,38,0.00,,CLR,0.00,VWS V12.07,2013-06-30 23:32:00,
2013-06-30 18:33:00,73.0,46.6,29.98,WNW,302,0.0,3.0,39,0.00,,CLR,0.00,VWS V12.07,2013-06-30 23:33:00,
2013-06-30 18:35:00,73.0,45.9,29.98,WNW,302,0.0,3.0,38,0.00,,CLR,0.00,VWS V12.07,2013-06-30 23:35:00,
2013-06-30 18:36:00,73.0,45.9,29.98,NNW,336,0.0,3.0,38,0.00,,CLR,0.00,VWS V12.07,2013-06-30 23:36:00,
2013-06-30 18:37:00,73.0,46.6,29.98,NNW,336,0.0,3.0,39,0.00,,CLR,0.00,VWS V12.07,2013-06-30 23:37:00,
2013-06-30 18:38:00,73.0,45.9,29.98,NNW,336,0.0,3.0,38,0.00,,CLR,0.00,VWS V12.07,2013-06-30 23:38:00,
2013-06-30 18:40:00,72.8,47.1,29.98,NNW,336,0.0,3.0,40,0.00,,CLR,0.00,VWS V12.07,2013-06-30 23:40:00,
2013-06-30 18:42:00,72.8,47.8,29.98,NNW,336,0.0,3.0,41,0.00,,CLR,0.00,VWS V12.07,2013-06-30 23:42:00,
2013-06-30 18:44:00,72.8,49.0,29.97,North,358,0.0,3.0,43,0.00,,CLR,0.00,VWS V12.07,2013-06-30 23:44:00,
2013-06-30 18:45:00,72.7,48.3,29.97,North,358,0.0,0.0,42,0.00,,CLR,0.00,VWS V12.07,2013-06-30 23:45:00,
2013-06-30 18:47:00,72.5,47.5,29.97,North,358,0.0,0.0,41,0.00,,CLR,0.00,VWS V12.07,2013-06-30 23:47:00,
2013-06-30 18:48:00,72.5,47.5,29.97,North,358,0.0,1.0,41,0.00,,CLR,0.00,VWS V12.07,2013-06-30 23:48:00,
2013-06-30 18:49:00,72.5,46.8,29.97,ENE,77,1.0,2.0,40,0.00,,CLR,0.00,VWS V12.07,2013-06-30 23:49:00,
2013-06-30 18:50:00,72.3,48.0,29.97,ENE,77,0.0,2.0,42,0.00,,CLR,0.00,VWS V12.07,2013-06-30 23:50:00,
2013-06-30 18:53:00,72.3,46.7,29.97,ENE,76,0.0,2.0,40,0.00,,CLR,0.00,VWS V12.07,2013-06-30 23:53:00,
2013-06-30 18:55:00,72.3,46.7,29.97,ENE,76,0.0,2.0,40,0.00,,CLR,0.00,VWS V12.07,2013-06-30 23:55:00,
2013-06-30 18:58:00,72.1,47.8,29.97,North,4,0.0,3.0,42,0.00,,CLR,0.00,VWS V12.07,2013-06-30 23:58:00,
2013-06-30 19:00:00,72.1,47.8,29.97,North,4,0.0,3.0,42,0.00,,CLR,0.00,VWS V12.07,2013-07-01 00:00:00,
2013-06-30 19:01:00,72.1,47.8,29.97,North,4,0.0,3.0,42,0.00,,CLR,0.00,VWS V12.07,2013-07-01 00:01:00,
2013-06-30 19:04:00,72.0,46.4,29.97,NNE,18,0.0,3.0,40,0.00,,CLR,0.00,VWS V12.07,2013-07-01 00:04:00,
2013-06-30 19:05:00,71.8,46.2,29.97,NNE,18,0.0,1.0,40,0.00,,CLR,0.00,VWS V12.07,2013-07-01 00:05:00,
2013-06-30 19:07:00,71.8,45.5,29.97,North,358,0.0,2.0,39,0.00,,CLR,0.00,VWS V12.07,2013-07-01 00:07:00,
2013-06-30 19:09:00,71.8,46.9,29.97,North,358,0.0,2.0,41,0.00,,CLR,0.00,VWS V12.07,2013-07-01 00:09:00,
2013-06-30 19:10:00,71.8,46.2,29.97,NNE,32,0.0,3.0,40,0.00,,CLR,0.00,VWS V12.07,2013-07-01 00:10:00,
2013-06-30 19:11:00,71.8,46.2,29.97,NNE,32,0.0,3.0,40,0.00,,CLR,0.00,VWS V12.07,2013-07-01 00:11:00,
2013-06-30 19:13:00,71.8,46.9,29.97,NNW,335,0.0,3.0,41,0.00,,CLR,0.00,VWS V12.07,2013-07-01 00:13:00,
2013-06-30 19:14:00,71.8,46.9,29.97,NNW,335,0.0,3.0,41,0.00,,CLR,0.00,VWS V12.07,2013-07-01 00:14:00,
2013-06-30 19:16:00,71.8,46.9,29.97,NNW,335,0.0,1.0,41,0.00,,CLR,0.00,VWS V12.07,2013-07-01 00:16:00,
2013-06-30 19:18:00,71.6,47.9,29.97,NNW,335,0.0,1.0,43,0.00,,CLR,0.00,VWS V12.07,2013-07-01 00:18:00,
2013-06-30 19:19:00,71.6,47.3,29.97,NNW,335,0.0,1.0,42,0.00,,CLR,0.00,VWS V12.07,2013-07-01 00:19:00,
2013-06-30 19:20:00,71.6,48.6,29.97,NNW,335,0.0,1.0,44,0.00,,CLR,0.00,VWS V12.07,2013-07-01 00:20:00,
2013-06-30 19:21:00,71.6,48.6,29.97,NNW,335,0.0,1.0,44,0.00,,CLR,0.00,VWS V12.07,2013-07-01 00:21:00,
2013-06-30 19:23:00,71.5,48.5,29.97,NE,48,2.0,3.0,44,0.00,,CLR,0.00,VWS V12.07,2013-07-01 00:23:00,
2013-06-30 19:25:00,71.3,47.0,29.97,NE,48,0.0,1.0,42,0.00,,CLR,0.00,VWS V12.07,2013-07-01 00:25:00,
2013-06-30 19:26:00,71.3,47.0,29.97,NE,48,1.0,1.0,42,0.00,,CLR,0.00,VWS V12.07,2013-07-01 00:26:00,
2013-06-30 19:27:00,71.3,47.0,29.97,NE,56,0.0,3.0,42,0.00,,CLR,0.00,VWS V12.07,2013-07-01 00:27:00,
2013-06-30 19:28:00,71.1,49.3,29.97,NW,323,3.0,3.0,46,0.00,,CLR,0.00,VWS V12.07,2013-07-01 00:28:00,
2013-06-30 19:30:00,70.9,48.5,29.97,NW,323,0.0,3.0,45,0.00,,CLR,0.00,VWS V12.07,2013-07-01 00:30:00,
2013-06-30 19:32:00,70.9,50.8,29.97,NW,323,0.0,3.0,49,0.00,,CLR,0.00,VWS V12.07,2013-07-01 00:32:00,
2013-06-30 19:33:00,70.9,49.1,29.97,NW,323,0.0,3.0,46,0.00,,CLR,0.00,VWS V12.07,2013-07-01 00:33:00,
2013-06-30 19:34:00,70.9,49.1,29.97,NW,323,0.0,3.0,46,0.00,,CLR,0.00,VWS V12.07,2013-07-01 00:34:00,
2013-06-30 19:36:00,70.8,49.0,29.97,East,82,0.0,0.0,46,0.00,,CLR,0.00,VWS V12.07,2013-07-01 00:36:00,
2013-06-30 19:37:00,70.6,49.4,29.97,East,82,0.0,0.0,47,0.00,,CLR,0.00,VWS V12.07,2013-07-01 00:37:00,
2013-06-30 19:38:00,70.6,49.4,29.97,East,82,0.0,0.0,47,0.00,,CLR,0.00,VWS V12.07,2013-07-01 00:38:00,
2013-06-30 19:39:00,70.6,50.0,29.97,East,82,0.0,0.0,48,0.00,,CLR,0.00,VWS V12.07,2013-07-01 00:39:00,
2013-06-30 19:41:00,70.4,48.7,29.97,East,82,0.0,0.0,46,0.00,,CLR,0.00,VWS V12.07,2013-07-01 00:41:00,
2013-06-30 19:43:00,70.3,49.1,29.97,East,82,0.0,0.0,47,0.00,,CLR,0.00,VWS V12.07,2013-07-01 00:43:00,
2013-06-30 19:44:00,70.3,49.1,29.97,East,82,0.0,2.0,47,0.00,,CLR,0.00,VWS V12.07,2013-07-01 00:44:00,
2013-06-30 19:46:00,69.9,48.8,29.97,East,82,0.0,0.0,47,0.00,,CLR,0.00,VWS V12.07,2013-07-01 00:46:00,
2013-06-30 19:48:00,69.9,49.3,29.97,East,82,0.0,0.0,48,0.00,,CLR,0.00,VWS V12.07,2013-07-01 00:48:00,
2013-06-30 19:49:00,69.9,48.2,29.97,East,82,0.0,0.0,46,0.00,,CLR,0.00,VWS V12.07,2013-07-01 00:49:00,
2013-06-30 19:50:00,69.8,49.2,29.97,East,82,0.0,0.0,48,0.00,,CLR,0.00,VWS V12.07,2013-07-01 00:50:00,
2013-06-30 19:52:00,69.6,49.6,29.97,East,82,0.0,0.0,49,0.00,,CLR,0.00,VWS V12.07,2013-07-01 00:52:00,
2013-06-30 19:54:00,69.6,48.5,29.97,East,82,0.0,0.0,47,0.00,,CLR,0.00,VWS V12.07,2013-07-01 00:54:00,
2013-06-30 19:55:00,69.4,48.3,29.97,East,82,0.0,0.0,47,0.00,,CLR,0.00,VWS V12.07,2013-07-01 00:55:00,
2013-06-30 19:57:00,69.4,51.5,29.97,East,82,0.0,0.0,53,0.00,,CLR,0.00,VWS V12.07,2013-07-01 00:57:00,
2013-06-30 19:59:00,69.3,50.9,29.96,East,82,0.0,0.0,52,0.00,,CLR,0.00,VWS V12.07,2013-07-01 00:59:00,
2013-06-30 20:00:00,69.1,50.8,29.96,East,82,0.0,0.0,52,0.00,,CLR,0.00,VWS V12.07,2013-07-01 01:00:00,
2013-06-30 20:02:00,69.1,53.2,29.96,East,82,0.0,0.0,57,0.00,,CLR,0.00,VWS V12.07,2013-07-01 01:02:00,
2013-06-30 20:04:00,68.8,52.0,29.96,East,82,0.0,0.0,55,0.00,,CLR,0.00,VWS V12.07,2013-07-01 01:04:00,
2013-06-30 20:05:00,68.8,51.5,29.96,East,82,0.0,0.0,54,0.00,,CLR,0.00,VWS V12.07,2013-07-01 01:05:00,
2013-06-30 20:08:00,68.4,52.1,29.96,East,82,0.0,0.0,56,0.00,,CLR,0.00,VWS V12.07,2013-07-01 01:08:00,
2013-06-30 20:09:00,68.4,51.6,29.96,East,82,0.0,0.0,55,0.00,,CLR,0.00,VWS V12.07,2013-07-01 01:09:00,
2013-06-30 20:10:00,68.3,51.5,29.96,East,82,0.0,0.0,55,0.00,,CLR,0.00,VWS V12.07,2013-07-01 01:10:00,
2013-06-30 20:13:00,67.9,51.2,29.96,East,82,0.0,0.0,55,0.00,,CLR,0.00,VWS V12.07,2013-07-01 01:13:00,
2013-06-30 20:15:00,67.8,51.1,29.96,East,82,0.0,0.0,55,0.00,,CLR,0.00,VWS V12.07,2013-07-01 01:15:00,
2013-06-30 20:16:00,67.8,51.1,29.96,East,82,0.0,0.0,55,0.00,,CLR,0.00,VWS V12.07,2013-07-01 01:16:00,
2013-06-30 20:18:00,67.4,50.7,29.96,East,82,0.0,0.0,55,0.00,,CLR,0.00,VWS V12.07,2013-07-01 01:18:00,
2013-06-30 20:20:00,67.3,50.6,29.96,East,82,0.0,0.0,55,0.00,,CLR,0.00,VWS V12.07,2013-07-01 01:20:00,
2013-06-30 20:21:00,67.3,49.6,29.96,East,82,0.0,0.0,53,0.00,,CLR,0.00,VWS V12.07,2013-07-01 01:21:00,
2013-06-30 20:22:00,67.1,50.4,29.96,East,82,0.0,0.0,55,0.00,,CLR,0.00,VWS V12.07,2013-07-01 01:22:00,
2013-06-30 20:23:00,66.9,51.2,29.96,East,82,0.0,0.0,57,0.00,,CLR,0.00,VWS V12.07,2013-07-01 01:23:00,
2013-06-30 20:25:00,66.8,49.6,29.96,East,82,0.0,0.0,54,0.00,,CLR,0.00,VWS V12.07,2013-07-01 01:25:00,
2013-06-30 20:26:00,66.8,49.6,29.96,East,82,0.0,0.0,54,0.00,,CLR,0.00,VWS V12.07,2013-07-01 01:26:00,
2013-06-30 20:27:00,66.6,49.5,29.96,East,82,0.0,0.0,54,0.00,,CLR,0.00,VWS V12.07,2013-07-01 01:27:00,
2013-06-30 20:29:00,66.4,50.2,29.97,East,82,0.0,0.0,56,0.00,,CLR,0.00,VWS V12.07,2013-07-01 01:29:00,
2013-06-30 20:30:00,66.3,50.2,29.97,East,82,0.0,0.0,56,0.00,,CLR,0.00,VWS V12.07,2013-07-01 01:30:00,
2013-06-30 20:31:00,66.3,50.2,29.97,East,82,0.0,0.0,56,0.00,,CLR,0.00,VWS V12.07,2013-07-01 01:31:00,
2013-06-30 20:32:00,66.3,50.2,29.97,East,82,0.0,0.0,56,0.00,,CLR,0.00,VWS V12.07,2013-07-01 01:32:00,
2013-06-30 20:35:00,66.0,50.8,29.97,East,82,0.0,0.0,58,0.00,,CLR,0.00,VWS V12.07,2013-07-01 01:35:00,
2013-06-30 20:36:00,65.8,51.1,29.97,East,82,0.0,0.0,59,0.00,,CLR,0.00,VWS V12.07,2013-07-01 01:36:00,
2013-06-30 20:37:00,65.8,51.1,29.97,East,82,0.0,0.0,59,0.00,,CLR,0.00,VWS V12.07,2013-07-01 01:37:00,
2013-06-30 20:38:00,65.6,50.4,29.97,East,82,0.0,0.0,58,0.00,,CLR,0.00,VWS V12.07,2013-07-01 01:38:00,
2013-06-30 20:40:00,65.5,49.9,29.97,East,82,0.0,0.0,57,0.00,,CLR,0.00,VWS V12.07,2013-07-01 01:40:00,
2013-06-30 20:41:00,65.3,49.7,29.97,East,82,0.0,0.0,57,0.00,,CLR,0.00,VWS V12.07,2013-07-01 01:41:00,
2013-06-30 20:42:00,65.3,49.7,29.97,East,82,0.0,0.0,57,0.00,,CLR,0.00,VWS V12.07,2013-07-01 01:42:00,
2013-06-30 20:44:00,65.2,51.0,29.97,East,82,0.0,0.0,60,0.00,,CLR,0.00,VWS V12.07,2013-07-01 01:44:00,
2013-06-30 20:45:00,65.0,50.8,29.97,East,82,0.0,0.0,60,0.00,,CLR,0.00,VWS V12.07,2013-07-01 01:45:00,
2013-06-30 20:47:00,64.8,50.2,29.97,East,82,0.0,0.0,59,0.00,,CLR,0.00,VWS V12.07,2013-07-01 01:47:00,
2013-06-30 20:48:00,64.7,50.1,29.97,East,82,0.0,0.0,59,0.00,,CLR,0.00,VWS V12.07,2013-07-01 01:48:00,
2013-06-30 20:49:00,64.5,50.3,29.97,East,82,0.0,0.0,60,0.00,,CLR,0.00,VWS V12.07,2013-07-01 01:49:00,
2013-06-30 20:50:00,64.3,51.0,29.97,East,82,0.0,0.0,62,0.00,,CLR,0.00,VWS V12.07,2013-07-01 01:50:00,
2013-06-30 20:52:00,64.3,50.6,29.97,East,82,0.0,0.0,61,0.00,,CLR,0.00,VWS V12.07,2013-07-01 01:52:00,
2013-06-30 20:53:00,64.2,50.9,29.97,East,82,0.0,0.0,62,0.00,,CLR,0.00,VWS V12.07,2013-07-01 01:53:00,
2013-06-30 20:54:00,64.0,50.7,29.97,East,82,0.0,1.0,62,0.00,,CLR,0.00,VWS V12.07,2013-07-01 01:54:00,
2013-06-30 20:56:00,63.9,50.6,29.97,East,82,0.0,0.0,62,0.00,,CLR,0.00,VWS V12.07,2013-07-01 01:56:00,
2013-06-30 20:58:00,63.7,50.9,29.97,East,82,0.0,0.0,63,0.00,,CLR,0.00,VWS V12.07,2013-07-01 01:58:00,
2013-06-30 20:59:00,63.5,50.7,29.97,East,82,0.0,0.0,63,0.00,,CLR,0.00,VWS V12.07,2013-07-01 01:59:00,
2013-06-30 21:01:00,63.4,50.6,29.97,East,82,0.0,0.0,63,0.00,,CLR,0.00,VWS V12.07,2013-07-01 02:01:00,
2013-06-30 21:03:00,63.1,50.7,29.97,East,82,0.0,0.0,64,0.00,,CLR,0.00,VWS V12.07,2013-07-01 02:03:00,
2013-06-30 21:04:00,63.1,50.7,29.97,East,82,0.0,0.0,64,0.00,,CLR,0.00,VWS V12.07,2013-07-01 02:04:00,
2013-06-30 21:07:00,62.7,50.4,29.97,East,82,0.0,0.0,64,0.00,,CLR,0.00,VWS V12.07,2013-07-01 02:07:00,
2013-06-30 21:09:00,62.6,50.3,29.97,East,82,0.0,0.0,64,0.00,,CLR,0.00,VWS V12.07,2013-07-01 02:09:00,
2013-06-30 21:13:00,62.3,50.0,29.98,East,82,0.0,0.0,64,0.00,,CLR,0.00,VWS V12.07,2013-07-01 02:13:00,
2013-06-30 21:14:00,62.3,50.0,29.98,East,82,0.0,0.0,64,0.00,,CLR,0.00,VWS V12.07,2013-07-01 02:14:00,
2013-06-30 21:15:00,62.1,50.2,29.98,East,82,0.0,0.0,65,0.00,,CLR,0.00,VWS V12.07,2013-07-01 02:15:00,
2013-06-30 21:18:00,62.0,50.9,29.98,East,82,0.0,0.0,67,0.00,,CLR,0.00,VWS V12.07,2013-07-01 02:18:00,
2013-06-30 21:19:00,62.0,50.9,29.98,East,82,0.0,0.0,67,0.00,,CLR,0.00,VWS V12.07,2013-07-01 02:19:00,
2013-06-30 21:20:00,61.8,50.7,29.98,East,82,0.0,0.0,67,0.00,,CLR,0.00,VWS V12.07,2013-07-01 02:20:00,
2013-06-30 21:24:00,61.6,51.7,29.98,East,82,0.0,0.0,70,0.00,,CLR,0.00,VWS V12.07,2013-07-01 02:24:00,
2013-06-30 21:25:00,61.6,51.7,29.98,East,82,0.0,0.0,70,0.00,,CLR,0.00,VWS V12.07,2013-07-01 02:25:00,
2013-06-30 21:29:00,61.3,50.7,29.98,East,82,0.0,0.0,68,0.00,,CLR,0.00,VWS V12.07,2013-07-01 02:29:00,
2013-06-30 21:30:00,61.3,50.7,29.98,East,82,0.0,0.0,68,0.00,,CLR,0.00,VWS V12.07,2013-07-01 02:30:00,
2013-06-30 21:31:00,61.2,50.6,29.98,East,82,0.0,0.0,68,0.00,,CLR,0.00,VWS V12.07,2013-07-01 02:31:00,
2013-06-30 21:34:00,61.0,51.2,29.98,East,82,0.0,0.0,70,0.00,,CLR,0.00,VWS V12.07,2013-07-01 02:34:00,
2013-06-30 21:35:00,60.9,51.1,29.98,East,82,0.0,0.0,70,0.00,,CLR,0.00,VWS V12.07,2013-07-01 02:35:00,
2013-06-30 21:36:00,60.9,50.7,29.98,East,82,0.0,0.0,69,0.00,,CLR,0.00,VWS V12.07,2013-07-01 02:36:00,
2013-06-30 21:40:00,60.5,51.1,29.98,East,82,0.0,0.0,71,0.00,,CLR,0.00,VWS V12.07,2013-07-01 02:40:00,
2013-06-30 21:41:00,60.4,51.0,29.98,East,82,0.0,0.0,71,0.00,,CLR,0.00,VWS V12.07,2013-07-01 02:41:00,
2013-06-30 21:42:00,60.4,51.0,29.98,East,82,0.0,0.0,71,0.00,,CLR,0.00,VWS V12.07,2013-07-01 02:42:00,
2013-06-30 21:45:00,60.2,51.2,29.99,East,82,0.0,0.0,72,0.00,,CLR,0.00,VWS V12.07,2013-07-01 02:45:00,
2013-06-30 21:47:00,60.1,51.1,29.99,East,82,0.0,0.0,72,0.00,,CLR,0.00,VWS V12.07,2013-07-01 02:47:00,
2013-06-30 21:50:00,59.9,50.1,29.99,East,82,0.0,0.0,70,0.00,,CLR,0.00,VWS V12.07,2013-07-01 02:50:00,
2013-06-30 21:51:00,59.8,50.4,29.99,East,82,0.0,0.0,71,0.00,,CLR,0.00,VWS V12.07,2013-07-01 02:51:00,
2013-06-30 21:52:00,59.8,50.4,29.99,East,82,0.0,0.0,71,0.00,,CLR,0.00,VWS V12.07,2013-07-01 02:52:00,
2013-06-30 21:55:00,59.6,50.6,29.99,East,82,0.0,0.0,72,0.00,,CLR,0.00,VWS V12.07,2013-07-01 02:55:00,
2013-06-30 21:56:00,59.6,50.6,29.99,East,82,0.0,0.0,72,0.00,,CLR,0.00,VWS V12.07,2013-07-01 02:56:00,
2013-06-30 21:57:00,59.5,50.5,29.99,East,82,0.0,0.0,72,0.00,,CLR,0.00,VWS V12.07,2013-07-01 02:57:00,
2013-06-30 22:01:00,59.3,49.9,29.99,East,82,0.0,0.0,71,0.00,,CLR,0.00,VWS V12.07,2013-07-01 03:01:00,
2013-06-30 22:02:00,59.3,49.9,29.99,East,82,0.0,0.0,71,0.00,,CLR,0.00,VWS V12.07,2013-07-01 03:02:00,
2013-06-30 22:03:00,59.2,49.8,29.99,East,82,0.0,0.0,71,0.00,,CLR,0.00,VWS V12.07,2013-07-01 03:03:00,
2013-06-30 22:06:00,59.0,50.0,29.99,East,82,0.0,0.0,72,0.00,,CLR,0.00,VWS V12.07,2013-07-01 03:06:00,
2013-06-30 22:07:00,59.0,50.0,29.99,East,82,0.0,0.0,72,0.00,,CLR,0.00,VWS V12.07,2013-07-01 03:07:00,
2013-06-30 22:08:00,59.0,50.0,29.99,East,82,0.0,0.0,72,0.00,,CLR,0.00,VWS V12.07,2013-07-01 03:08:00,
2013-06-30 22:11:00,59.0,50.0,29.99,East,82,0.0,0.0,72,0.00,,CLR,0.00,VWS V12.07,2013-07-01 03:11:00,
2013-06-30 22:12:00,59.0,50.4,29.99,East,82,0.0,0.0,73,0.00,,CLR,0.00,VWS V12.07,2013-07-01 03:12:00,
2013-06-30 22:13:00,59.0,50.4,29.99,East,82,0.0,0.0,73,0.00,,CLR,0.00,VWS V12.07,2013-07-01 03:13:00,
2013-06-30 22:17:00,59.2,51.7,29.99,East,82,0.0,0.0,76,0.00,,CLR,0.00,VWS V12.07,2013-07-01 03:17:00,
2013-06-30 22:18:00,59.2,51.7,29.99,East,82,0.0,0.0,76,0.00,,CLR,0.00,VWS V12.07,2013-07-01 03:18:00,
2013-06-30 22:19:00,59.2,51.7,29.99,East,82,0.0,0.0,76,0.00,,CLR,0.00,VWS V12.07,2013-07-01 03:19:00,
2013-06-30 22:22:00,59.2,52.0,29.99,East,82,0.0,0.0,77,0.00,,CLR,0.00,VWS V12.07,2013-07-01 03:22:00,
2013-06-30 22:23:00,59.2,52.0,29.99,East,82,0.0,0.0,77,0.00,,CLR,0.00,VWS V12.07,2013-07-01 03:23:00,
2013-06-30 22:24:00,59.0,51.8,29.99,East,82,0.0,0.0,77,0.00,,CLR,0.00,VWS V12.07,2013-07-01 03:24:00,
2013-06-30 22:27:00,59.0,51.8,29.99,East,82,0.0,0.0,77,0.00,,CLR,0.00,VWS V12.07,2013-07-01 03:27:00,
2013-06-30 22:28:00,59.0,51.8,29.99,East,82,0.0,0.0,77,0.00,,CLR,0.00,VWS V12.07,2013-07-01 03:28:00,
2013-06-30 22:29:00,58.9,51.7,29.99,East,82,0.0,0.0,77,0.00,,CLR,0.00,VWS V12.07,2013-07-01 03:29:00,
2013-06-30 22:33:00,58.9,52.1,29.99,East,82,0.0,0.0,78,0.00,,CLR,0.00,VWS V12.07,2013-07-01 03:33:00,
2013-06-30 22:34:00,58.9,52.1,29.99,East,82,0.0,0.0,78,0.00,,CLR,0.00,VWS V12.07,2013-07-01 03:34:00,
2013-06-30 22:38:00,58.9,52.8,29.99,East,82,0.0,0.0,80,0.00,,CLR,0.00,VWS V12.07,2013-07-01 03:38:00,
2013-06-30 22:39:00,58.9,52.8,29.99,East,82,0.0,0.0,80,0.00,,CLR,0.00,VWS V12.07,2013-07-01 03:39:00,
2013-06-30 22:40:00,58.9,52.8,29.99,East,82,0.0,0.0,80,0.00,,CLR,0.00,VWS V12.07,2013-07-01 03:40:00,
2013-06-30 22:43:00,58.9,53.1,29.99,East,82,0.0,0.0,81,0.00,,CLR,0.00,VWS V12.07,2013-07-01 03:43:00,
2013-06-30 22:44:00,58.9,53.1,29.99,East,82,0.0,0.0,81,0.00,,CLR,0.00,VWS V12.07,2013-07-01 03:44:00,
2013-06-30 22:45:00,58.9,53.1,29.99,East,82,0.0,0.0,81,0.00,,CLR,0.00,VWS V12.07,2013-07-01 03:45:00,
2013-06-30 22:48:00,58.7,53.2,29.99,East,82,0.0,0.0,82,0.00,,CLR,0.00,VWS V12.07,2013-07-01 03:48:00,
2013-06-30 22:49:00,58.7,53.2,29.99,East,82,0.0,0.0,82,0.00,,CLR,0.00,VWS V12.07,2013-07-01 03:49:00,
2013-06-30 22:50:00,58.7,53.6,29.99,East,82,0.0,0.0,83,0.00,,CLR,0.00,VWS V12.07,2013-07-01 03:50:00,
2013-06-30 22:51:00,58.7,53.6,29.99,East,82,0.0,0.0,83,0.00,,CLR,0.00,VWS V12.07,2013-07-01 03:51:00,
2013-06-30 22:53:00,58.6,53.5,29.99,East,82,0.0,0.0,83,0.00,,CLR,0.00,VWS V12.07,2013-07-01 03:53:00,
2013-06-30 22:54:00,58.6,53.5,29.99,East,82,0.0,0.0,83,0.00,,CLR,0.00,VWS V12.07,2013-07-01 03:54:00,
2013-06-30 22:55:00,58.6,53.5,29.99,East,82,0.0,0.0,83,0.00,,CLR,0.00,VWS V12.07,2013-07-01 03:55:00,
2013-06-30 22:56:00,58.6,53.5,29.99,East,82,0.0,0.0,83,0.00,,CLR,0.00,VWS V12.07,2013-07-01 03:56:00,
2013-06-30 22:58:00,58.4,53.3,30.00,East,82,0.0,0.0,83,0.00,,CLR,0.00,VWS V12.07,2013-07-01 03:58:00,
2013-06-30 23:00:00,58.4,53.6,30.00,East,82,0.0,0.0,84,0.00,,CLR,0.00,VWS V12.07,2013-07-01 04:00:00,
2013-06-30 23:01:00,58.4,53.6,30.00,East,82,0.0,0.0,84,0.00,,CLR,0.00,VWS V12.07,2013-07-01 04:01:00,
2013-06-30 23:02:00,58.3,53.5,30.00,East,82,0.0,0.0,84,0.00,,CLR,0.00,VWS V12.07,2013-07-01 04:02:00,
2013-06-30 23:06:00,58.1,53.6,30.00,East,82,0.0,0.0,85,0.00,,CLR,0.00,VWS V12.07,2013-07-01 04:06:00,
2013-06-30 23:07:00,58.1,53.6,30.00,East,82,0.0,0.0,85,0.00,,CLR,0.00,VWS V12.07,2013-07-01 04:07:00,
2013-06-30 23:11:00,58.0,53.8,30.00,East,82,0.0,0.0,86,0.00,,CLR,0.00,VWS V12.07,2013-07-01 04:11:00,
2013-06-30 23:12:00,58.0,53.8,30.00,East,82,0.0,0.0,86,0.00,,CLR,0.00,VWS V12.07,2013-07-01 04:12:00,
2013-06-30 23:13:00,58.0,53.8,30.00,East,82,0.0,0.0,86,0.00,,CLR,0.00,VWS V12.07,2013-07-01 04:13:00,
2013-06-30 23:16:00,57.8,54.0,30.00,East,82,0.0,0.0,87,0.00,,CLR,0.00,VWS V12.07,2013-07-01 04:16:00,
2013-06-30 23:17:00,57.8,54.3,30.00,East,82,0.0,0.0,88,0.00,,CLR,0.00,VWS V12.07,2013-07-01 04:17:00,
2013-06-30 23:18:00,57.8,54.3,30.00,East,82,0.0,0.0,88,0.00,,CLR,0.00,VWS V12.07,2013-07-01 04:18:00,
2013-06-30 23:21:00,57.8,54.3,30.00,East,82,0.0,0.0,88,0.00,,CLR,0.00,VWS V12.07,2013-07-01 04:21:00,
2013-06-30 23:22:00,57.8,54.3,30.00,East,82,0.0,0.0,88,0.00,,CLR,0.00,VWS V12.07,2013-07-01 04:22:00,
2013-06-30 23:23:00,57.6,54.4,30.00,East,82,0.0,0.0,89,0.00,,CLR,0.00,VWS V12.07,2013-07-01 04:23:00,
2013-06-30 23:26:00,57.5,54.3,30.00,East,82,0.0,0.0,89,0.00,,CLR,0.00,VWS V12.07,2013-07-01 04:26:00,
2013-06-30 23:27:00,57.5,54.3,30.00,East,82,0.0,0.0,89,0.00,,CLR,0.00,VWS V12.07,2013-07-01 04:27:00,
2013-06-30 23:28:00,57.5,54.3,30.01,East,82,0.0,0.0,89,0.00,,CLR,0.00,VWS V12.07,2013-07-01 04:28:00,
2013-06-30 23:31:00,57.3,54.4,30.01,East,82,0.0,0.0,90,0.00,,CLR,0.00,VWS V12.07,2013-07-01 04:31:00,
2013-06-30 23:33:00,57.2,54.3,30.01,East,82,0.0,0.0,90,0.00,,CLR,0.00,VWS V12.07,2013-07-01 04:33:00,
2013-06-30 23:34:00,57.2,54.3,30.01,East,82,0.0,0.0,90,0.00,,CLR,0.00,VWS V12.07,2013-07-01 04:34:00,
2013-06-30 23:36:00,57.0,54.1,30.01,East,82,0.0,0.0,90,0.00,,CLR,0.00,VWS V12.07,2013-07-01 04:36:00,
2013-06-30 23:38:00,57.0,54.1,30.01,East,82,0.0,0.0,90,0.00,,CLR,0.00,VWS V12.07,2013-07-01 04:38:00,
2013-06-30 23:39:00,57.0,54.4,30.01,East,82,0.0,0.0,91,0.00,,CLR,0.00,VWS V12.07,2013-07-01 04:39:00,
2013-06-30 23:42:00,57.2,55.2,30.01,East,82,0.0,0.0,93,0.00,,CLR,0.00,VWS V12.07,2013-07-01 04:42:00,
2013-06-30 23:43:00,57.2,55.5,30.01,East,82,0.0,0.0,94,0.00,,CLR,0.00,VWS V12.07,2013-07-01 04:43:00,
2013-06-30 23:44:00,57.2,55.5,30.01,East,82,0.0,0.0,94,0.00,,CLR,0.00,VWS V12.07,2013-07-01 04:44:00,
2013-06-30 23:45:00,57.2,55.8,30.01,East,82,0.0,0.0,95,0.00,,CLR,0.00,VWS V12.07,2013-07-01 04:45:00,
2013-06-30 23:47:00,57.2,55.8,30.01,East,82,0.0,0.0,95,0.00,,CLR,0.00,VWS V12.07,2013-07-01 04:47:00,
2013-06-30 23:48:00,57.2,55.8,30.01,East,82,0.0,0.0,95,0.00,,CLR,0.00,VWS V12.07,2013-07-01 04:48:00,
2013-06-30 23:50:00,57.2,55.5,30.01,East,82,0.0,0.0,94,0.00,,CLR,0.00,VWS V12.07,2013-07-01 04:50:00,
2013-06-30 23:52:00,57.0,55.0,30.01,East,82,0.0,0.0,93,0.00,,CLR,0.00,VWS V12.07,2013-07-01 04:52:00,
2013-06-30 23:53:00,56.9,54.9,30.01,East,82,0.0,0.0,93,0.00,,CLR,0.00,VWS V12.07,2013-07-01 04:53:00,
2013-06-30 23:55:00,56.7,54.7,30.01,East,82,0.0,0.0,93,0.00,,CLR,0.00,VWS V12.07,2013-07-01 04:55:00,
2013-06-30 23:56:00,56.7,54.4,30.01,East,82,0.0,0.0,92,0.00,,CLR,0.00,VWS V12.07,2013-07-01 04:56:00,
2013-06-30 23:57:00,56.6,54.3,30.01,East,82,0.0,0.0,92,0.00,,CLR,0.00,VWS V12.07,2013-07-01 04:57:00,
2013-06-30 23:58:00,56.5,54.2,30.01,East,82,0.0,0.0,92,0.00,,CLR,0.00,VWS V12.07,2013-07-01 04:58:00,